<?xml version="1.0" encoding="UTF-8" standalone="no" ?>
<gpx xmlns="http://www.topografix.com/GPX/1/1" xmlns:xsi="http://www.w3.org/2001/XMLSchema-instance" xsi:schemaLocation="http://www.topografix.com/GPX/1/1 http://www.topografix.com/GPX/1/1/gpx.xsd" version="1.1" creator="VisuGPX - https://www.visugpx.com">
  <metadata>
    <name>Balade de 7km à La Haye D'Ectot</name>
  </metadata>
  <trk>
    <name><![CDATA[Balade de 7km à La Haye D'Ectot_1]]></name>
    <trkseg>
      <trkpt lat="49.39004" lon="-1.73465">
        <ele>70.3</ele>
        <time>2022-03-14T15:06:07Z</time>
      </trkpt>
      <trkpt lat="49.39009" lon="-1.73465">
        <ele>63.9</ele>
        <time>2022-03-14T15:07:23Z</time>
      </trkpt>
      <trkpt lat="49.3901" lon="-1.73474">
        <ele>63.5</ele>
        <time>2022-03-14T15:07:33Z</time>
      </trkpt>
      <trkpt lat="49.39009" lon="-1.73482">
        <ele>63.5</ele>
        <time>2022-03-14T15:07:35Z</time>
      </trkpt>
      <trkpt lat="49.39005" lon="-1.73487">
        <ele>64.4</ele>
        <time>2022-03-14T15:07:54Z</time>
      </trkpt>
      <trkpt lat="49.39005" lon="-1.73495">
        <ele>64.4</ele>
        <time>2022-03-14T15:07:59Z</time>
      </trkpt>
      <trkpt lat="49.39009" lon="-1.735">
        <ele>64.2</ele>
        <time>2022-03-14T15:08:02Z</time>
      </trkpt>
      <trkpt lat="49.39013" lon="-1.73503">
        <ele>64.3</ele>
        <time>2022-03-14T15:08:06Z</time>
      </trkpt>
      <trkpt lat="49.39017" lon="-1.73499">
        <ele>64.6</ele>
        <time>2022-03-14T15:08:13Z</time>
      </trkpt>
      <trkpt lat="49.39022" lon="-1.73497">
        <ele>64.9</ele>
        <time>2022-03-14T15:08:17Z</time>
      </trkpt>
      <trkpt lat="49.39027" lon="-1.73496">
        <ele>65</ele>
        <time>2022-03-14T15:08:20Z</time>
      </trkpt>
      <trkpt lat="49.39032" lon="-1.73497">
        <ele>65.2</ele>
        <time>2022-03-14T15:08:24Z</time>
      </trkpt>
      <trkpt lat="49.39037" lon="-1.73493">
        <ele>65.5</ele>
        <time>2022-03-14T15:08:28Z</time>
      </trkpt>
      <trkpt lat="49.39042" lon="-1.73488">
        <ele>66</ele>
        <time>2022-03-14T15:08:31Z</time>
      </trkpt>
      <trkpt lat="49.39046" lon="-1.73482">
        <ele>66.4</ele>
        <time>2022-03-14T15:08:35Z</time>
      </trkpt>
      <trkpt lat="49.39051" lon="-1.73483">
        <ele>67.1</ele>
        <time>2022-03-14T15:08:39Z</time>
      </trkpt>
      <trkpt lat="49.39056" lon="-1.73481">
        <ele>67.3</ele>
        <time>2022-03-14T15:08:43Z</time>
      </trkpt>
      <trkpt lat="49.3906" lon="-1.73476">
        <ele>67.4</ele>
        <time>2022-03-14T15:08:46Z</time>
      </trkpt>
      <trkpt lat="49.39064" lon="-1.73472">
        <ele>67.3</ele>
        <time>2022-03-14T15:08:49Z</time>
      </trkpt>
      <trkpt lat="49.39069" lon="-1.73467">
        <ele>67.5</ele>
        <time>2022-03-14T15:08:54Z</time>
      </trkpt>
      <trkpt lat="49.39075" lon="-1.73464">
        <ele>67.6</ele>
        <time>2022-03-14T15:08:58Z</time>
      </trkpt>
      <trkpt lat="49.3908" lon="-1.73462">
        <ele>67.9</ele>
        <time>2022-03-14T15:09:02Z</time>
      </trkpt>
      <trkpt lat="49.39085" lon="-1.7346">
        <ele>68.2</ele>
        <time>2022-03-14T15:09:05Z</time>
      </trkpt>
      <trkpt lat="49.3909" lon="-1.73457">
        <ele>68.3</ele>
        <time>2022-03-14T15:09:10Z</time>
      </trkpt>
      <trkpt lat="49.39094" lon="-1.73454">
        <ele>68.2</ele>
        <time>2022-03-14T15:09:13Z</time>
      </trkpt>
      <trkpt lat="49.391" lon="-1.7345">
        <ele>68.1</ele>
        <time>2022-03-14T15:09:17Z</time>
      </trkpt>
      <trkpt lat="49.39105" lon="-1.73448">
        <ele>68</ele>
        <time>2022-03-14T15:09:21Z</time>
      </trkpt>
      <trkpt lat="49.3911" lon="-1.73446">
        <ele>68.5</ele>
        <time>2022-03-14T15:09:31Z</time>
      </trkpt>
      <trkpt lat="49.39115" lon="-1.73444">
        <ele>68.4</ele>
        <time>2022-03-14T15:09:34Z</time>
      </trkpt>
      <trkpt lat="49.3912" lon="-1.73443">
        <ele>68.4</ele>
        <time>2022-03-14T15:09:37Z</time>
      </trkpt>
      <trkpt lat="49.39125" lon="-1.73442">
        <ele>68.3</ele>
        <time>2022-03-14T15:09:40Z</time>
      </trkpt>
      <trkpt lat="49.3913" lon="-1.73441">
        <ele>68.2</ele>
        <time>2022-03-14T15:09:43Z</time>
      </trkpt>
      <trkpt lat="49.39135" lon="-1.7344">
        <ele>68.3</ele>
        <time>2022-03-14T15:09:47Z</time>
      </trkpt>
      <trkpt lat="49.39139" lon="-1.73441">
        <ele>68.4</ele>
        <time>2022-03-14T15:09:50Z</time>
      </trkpt>
      <trkpt lat="49.39148" lon="-1.73441">
        <ele>68.8</ele>
        <time>2022-03-14T15:09:57Z</time>
      </trkpt>
      <trkpt lat="49.39153" lon="-1.73442">
        <ele>69.5</ele>
        <time>2022-03-14T15:10:01Z</time>
      </trkpt>
      <trkpt lat="49.39156" lon="-1.73449">
        <ele>70.9</ele>
        <time>2022-03-14T15:10:12Z</time>
      </trkpt>
      <trkpt lat="49.39161" lon="-1.7345">
        <ele>70.7</ele>
        <time>2022-03-14T15:10:15Z</time>
      </trkpt>
      <trkpt lat="49.39166" lon="-1.73451">
        <ele>70.5</ele>
        <time>2022-03-14T15:10:18Z</time>
      </trkpt>
      <trkpt lat="49.39172" lon="-1.7345">
        <ele>70.5</ele>
        <time>2022-03-14T15:10:30Z</time>
      </trkpt>
      <trkpt lat="49.39177" lon="-1.7345">
        <ele>70.6</ele>
        <time>2022-03-14T15:10:33Z</time>
      </trkpt>
      <trkpt lat="49.39181" lon="-1.73451">
        <ele>70.9</ele>
        <time>2022-03-14T15:10:36Z</time>
      </trkpt>
      <trkpt lat="49.39187" lon="-1.73456">
        <ele>71.4</ele>
        <time>2022-03-14T15:10:50Z</time>
      </trkpt>
      <trkpt lat="49.39192" lon="-1.73456">
        <ele>71.2</ele>
        <time>2022-03-14T15:10:53Z</time>
      </trkpt>
      <trkpt lat="49.39198" lon="-1.73454">
        <ele>70.6</ele>
        <time>2022-03-14T15:10:56Z</time>
      </trkpt>
      <trkpt lat="49.39203" lon="-1.73454">
        <ele>69.9</ele>
        <time>2022-03-14T15:10:59Z</time>
      </trkpt>
      <trkpt lat="49.39208" lon="-1.73454">
        <ele>69.7</ele>
        <time>2022-03-14T15:11:02Z</time>
      </trkpt>
      <trkpt lat="49.39213" lon="-1.73459">
        <ele>71.7</ele>
        <time>2022-03-14T15:11:19Z</time>
      </trkpt>
      <trkpt lat="49.3922" lon="-1.73461">
        <ele>72.1</ele>
        <time>2022-03-14T15:11:22Z</time>
      </trkpt>
      <trkpt lat="49.39227" lon="-1.73464">
        <ele>72.4</ele>
        <time>2022-03-14T15:11:25Z</time>
      </trkpt>
      <trkpt lat="49.39233" lon="-1.73465">
        <ele>72.6</ele>
        <time>2022-03-14T15:11:29Z</time>
      </trkpt>
      <trkpt lat="49.39238" lon="-1.73466">
        <ele>72.9</ele>
        <time>2022-03-14T15:11:38Z</time>
      </trkpt>
      <trkpt lat="49.39244" lon="-1.73464">
        <ele>73.4</ele>
        <time>2022-03-14T15:11:41Z</time>
      </trkpt>
      <trkpt lat="49.3925" lon="-1.73464">
        <ele>73.9</ele>
        <time>2022-03-14T15:11:45Z</time>
      </trkpt>
      <trkpt lat="49.39255" lon="-1.73465">
        <ele>74.4</ele>
        <time>2022-03-14T15:11:50Z</time>
      </trkpt>
      <trkpt lat="49.39259" lon="-1.73467">
        <ele>74.2</ele>
        <time>2022-03-14T15:12:02Z</time>
      </trkpt>
      <trkpt lat="49.39264" lon="-1.73467">
        <ele>73.8</ele>
        <time>2022-03-14T15:12:06Z</time>
      </trkpt>
      <trkpt lat="49.39269" lon="-1.7347">
        <ele>73.1</ele>
        <time>2022-03-14T15:12:10Z</time>
      </trkpt>
      <trkpt lat="49.39276" lon="-1.73472">
        <ele>72.7</ele>
        <time>2022-03-14T15:12:15Z</time>
      </trkpt>
      <trkpt lat="49.3928" lon="-1.73473">
        <ele>72.6</ele>
        <time>2022-03-14T15:12:18Z</time>
      </trkpt>
      <trkpt lat="49.39286" lon="-1.73472">
        <ele>72.8</ele>
        <time>2022-03-14T15:12:21Z</time>
      </trkpt>
      <trkpt lat="49.39292" lon="-1.73473">
        <ele>73</ele>
        <time>2022-03-14T15:12:25Z</time>
      </trkpt>
      <trkpt lat="49.39296" lon="-1.73474">
        <ele>73</ele>
        <time>2022-03-14T15:12:28Z</time>
      </trkpt>
      <trkpt lat="49.39301" lon="-1.73477">
        <ele>72.8</ele>
        <time>2022-03-14T15:12:31Z</time>
      </trkpt>
      <trkpt lat="49.39306" lon="-1.73481">
        <ele>72.6</ele>
        <time>2022-03-14T15:12:35Z</time>
      </trkpt>
      <trkpt lat="49.39311" lon="-1.73481">
        <ele>72.5</ele>
        <time>2022-03-14T15:12:39Z</time>
      </trkpt>
      <trkpt lat="49.39311" lon="-1.73474">
        <ele>73.1</ele>
        <time>2022-03-14T15:13:06Z</time>
      </trkpt>
      <trkpt lat="49.39315" lon="-1.73468">
        <ele>73.6</ele>
        <time>2022-03-14T15:13:11Z</time>
      </trkpt>
      <trkpt lat="49.39318" lon="-1.73474">
        <ele>73.8</ele>
        <time>2022-03-14T15:13:14Z</time>
      </trkpt>
      <trkpt lat="49.3932" lon="-1.73481">
        <ele>73.8</ele>
        <time>2022-03-14T15:13:17Z</time>
      </trkpt>
      <trkpt lat="49.39322" lon="-1.7349">
        <ele>73.8</ele>
        <time>2022-03-14T15:13:21Z</time>
      </trkpt>
      <trkpt lat="49.39325" lon="-1.73495">
        <ele>73.7</ele>
        <time>2022-03-14T15:13:25Z</time>
      </trkpt>
      <trkpt lat="49.39329" lon="-1.73501">
        <ele>73.5</ele>
        <time>2022-03-14T15:13:29Z</time>
      </trkpt>
      <trkpt lat="49.39332" lon="-1.73508">
        <ele>73.5</ele>
        <time>2022-03-14T15:13:33Z</time>
      </trkpt>
      <trkpt lat="49.39336" lon="-1.73515">
        <ele>73.5</ele>
        <time>2022-03-14T15:13:37Z</time>
      </trkpt>
      <trkpt lat="49.39339" lon="-1.73521">
        <ele>73.6</ele>
        <time>2022-03-14T15:13:42Z</time>
      </trkpt>
      <trkpt lat="49.39342" lon="-1.73526">
        <ele>74</ele>
        <time>2022-03-14T15:13:46Z</time>
      </trkpt>
      <trkpt lat="49.39345" lon="-1.73532">
        <ele>74.3</ele>
        <time>2022-03-14T15:13:49Z</time>
      </trkpt>
      <trkpt lat="49.39349" lon="-1.73541">
        <ele>74.4</ele>
        <time>2022-03-14T15:13:53Z</time>
      </trkpt>
      <trkpt lat="49.39352" lon="-1.73546">
        <ele>74.3</ele>
        <time>2022-03-14T15:13:56Z</time>
      </trkpt>
      <trkpt lat="49.39353" lon="-1.73554">
        <ele>74.4</ele>
        <time>2022-03-14T15:14:01Z</time>
      </trkpt>
      <trkpt lat="49.39356" lon="-1.7356">
        <ele>75</ele>
        <time>2022-03-14T15:14:05Z</time>
      </trkpt>
      <trkpt lat="49.3936" lon="-1.73565">
        <ele>75.6</ele>
        <time>2022-03-14T15:14:08Z</time>
      </trkpt>
      <trkpt lat="49.39364" lon="-1.7357">
        <ele>76</ele>
        <time>2022-03-14T15:14:16Z</time>
      </trkpt>
      <trkpt lat="49.39367" lon="-1.73577">
        <ele>76</ele>
        <time>2022-03-14T15:14:18Z</time>
      </trkpt>
      <trkpt lat="49.39369" lon="-1.73585">
        <ele>75.9</ele>
        <time>2022-03-14T15:14:21Z</time>
      </trkpt>
      <trkpt lat="49.39371" lon="-1.73591">
        <ele>75.6</ele>
        <time>2022-03-14T15:14:24Z</time>
      </trkpt>
      <trkpt lat="49.39375" lon="-1.73599">
        <ele>75.1</ele>
        <time>2022-03-14T15:14:28Z</time>
      </trkpt>
      <trkpt lat="49.39377" lon="-1.73606">
        <ele>74.8</ele>
        <time>2022-03-14T15:14:31Z</time>
      </trkpt>
      <trkpt lat="49.39379" lon="-1.73615">
        <ele>74.4</ele>
        <time>2022-03-14T15:14:36Z</time>
      </trkpt>
      <trkpt lat="49.39381" lon="-1.73623">
        <ele>74.1</ele>
        <time>2022-03-14T15:14:39Z</time>
      </trkpt>
      <trkpt lat="49.39382" lon="-1.73631">
        <ele>73.9</ele>
        <time>2022-03-14T15:14:43Z</time>
      </trkpt>
      <trkpt lat="49.39384" lon="-1.7364">
        <ele>73.6</ele>
        <time>2022-03-14T15:14:47Z</time>
      </trkpt>
      <trkpt lat="49.39386" lon="-1.73647">
        <ele>73.6</ele>
        <time>2022-03-14T15:14:50Z</time>
      </trkpt>
      <trkpt lat="49.39389" lon="-1.73657">
        <ele>73.5</ele>
        <time>2022-03-14T15:14:54Z</time>
      </trkpt>
      <trkpt lat="49.39391" lon="-1.73663">
        <ele>73.5</ele>
        <time>2022-03-14T15:14:57Z</time>
      </trkpt>
      <trkpt lat="49.39391" lon="-1.73671">
        <ele>73.5</ele>
        <time>2022-03-14T15:15:00Z</time>
      </trkpt>
      <trkpt lat="49.39391" lon="-1.7368">
        <ele>73.7</ele>
        <time>2022-03-14T15:15:04Z</time>
      </trkpt>
      <trkpt lat="49.39393" lon="-1.73687">
        <ele>74.1</ele>
        <time>2022-03-14T15:15:13Z</time>
      </trkpt>
      <trkpt lat="49.39393" lon="-1.73694">
        <ele>74</ele>
        <time>2022-03-14T15:15:16Z</time>
      </trkpt>
      <trkpt lat="49.39392" lon="-1.73703">
        <ele>73.9</ele>
        <time>2022-03-14T15:15:19Z</time>
      </trkpt>
      <trkpt lat="49.39393" lon="-1.7371">
        <ele>73.7</ele>
        <time>2022-03-14T15:15:22Z</time>
      </trkpt>
      <trkpt lat="49.39394" lon="-1.73719">
        <ele>73.8</ele>
        <time>2022-03-14T15:15:26Z</time>
      </trkpt>
      <trkpt lat="49.39393" lon="-1.73729">
        <ele>73.8</ele>
        <time>2022-03-14T15:15:29Z</time>
      </trkpt>
      <trkpt lat="49.39394" lon="-1.73738">
        <ele>73.9</ele>
        <time>2022-03-14T15:15:34Z</time>
      </trkpt>
      <trkpt lat="49.39394" lon="-1.73745">
        <ele>73.9</ele>
        <time>2022-03-14T15:15:38Z</time>
      </trkpt>
      <trkpt lat="49.39395" lon="-1.73752">
        <ele>73.7</ele>
        <time>2022-03-14T15:15:41Z</time>
      </trkpt>
      <trkpt lat="49.39396" lon="-1.73761">
        <ele>73.4</ele>
        <time>2022-03-14T15:15:46Z</time>
      </trkpt>
      <trkpt lat="49.39396" lon="-1.73769">
        <ele>73.2</ele>
        <time>2022-03-14T15:15:49Z</time>
      </trkpt>
      <trkpt lat="49.39397" lon="-1.73776">
        <ele>73.3</ele>
        <time>2022-03-14T15:15:56Z</time>
      </trkpt>
      <trkpt lat="49.39398" lon="-1.73784">
        <ele>73.4</ele>
        <time>2022-03-14T15:15:59Z</time>
      </trkpt>
      <trkpt lat="49.39399" lon="-1.73792">
        <ele>73.6</ele>
        <time>2022-03-14T15:16:03Z</time>
      </trkpt>
      <trkpt lat="49.39399" lon="-1.73799">
        <ele>73.6</ele>
        <time>2022-03-14T15:16:06Z</time>
      </trkpt>
      <trkpt lat="49.394" lon="-1.73806">
        <ele>73.5</ele>
        <time>2022-03-14T15:16:09Z</time>
      </trkpt>
      <trkpt lat="49.39399" lon="-1.73814">
        <ele>73.4</ele>
        <time>2022-03-14T15:16:12Z</time>
      </trkpt>
      <trkpt lat="49.39399" lon="-1.73821">
        <ele>73.2</ele>
        <time>2022-03-14T15:16:16Z</time>
      </trkpt>
      <trkpt lat="49.39403" lon="-1.73825">
        <ele>73</ele>
        <time>2022-03-14T15:16:20Z</time>
      </trkpt>
      <trkpt lat="49.39405" lon="-1.73832">
        <ele>72.8</ele>
        <time>2022-03-14T15:16:24Z</time>
      </trkpt>
      <trkpt lat="49.39406" lon="-1.7384">
        <ele>72.7</ele>
        <time>2022-03-14T15:16:27Z</time>
      </trkpt>
      <trkpt lat="49.39405" lon="-1.73848">
        <ele>72.7</ele>
        <time>2022-03-14T15:16:30Z</time>
      </trkpt>
      <trkpt lat="49.39406" lon="-1.73857">
        <ele>72.5</ele>
        <time>2022-03-14T15:16:35Z</time>
      </trkpt>
      <trkpt lat="49.3941" lon="-1.73862">
        <ele>72.2</ele>
        <time>2022-03-14T15:16:39Z</time>
      </trkpt>
      <trkpt lat="49.39413" lon="-1.73871">
        <ele>71.9</ele>
        <time>2022-03-14T15:16:45Z</time>
      </trkpt>
      <trkpt lat="49.39417" lon="-1.73879">
        <ele>71.8</ele>
        <time>2022-03-14T15:16:49Z</time>
      </trkpt>
      <trkpt lat="49.3942" lon="-1.73884">
        <ele>71.7</ele>
        <time>2022-03-14T15:16:53Z</time>
      </trkpt>
      <trkpt lat="49.39423" lon="-1.73889">
        <ele>71.6</ele>
        <time>2022-03-14T15:16:56Z</time>
      </trkpt>
      <trkpt lat="49.39428" lon="-1.73895">
        <ele>71.5</ele>
        <time>2022-03-14T15:17:00Z</time>
      </trkpt>
      <trkpt lat="49.39431" lon="-1.73901">
        <ele>71.3</ele>
        <time>2022-03-14T15:17:03Z</time>
      </trkpt>
      <trkpt lat="49.39435" lon="-1.73905">
        <ele>71.1</ele>
        <time>2022-03-14T15:17:06Z</time>
      </trkpt>
      <trkpt lat="49.39438" lon="-1.7391">
        <ele>70.8</ele>
        <time>2022-03-14T15:17:09Z</time>
      </trkpt>
      <trkpt lat="49.39443" lon="-1.73916">
        <ele>70.6</ele>
        <time>2022-03-14T15:17:13Z</time>
      </trkpt>
      <trkpt lat="49.39449" lon="-1.73919">
        <ele>70.5</ele>
        <time>2022-03-14T15:17:17Z</time>
      </trkpt>
      <trkpt lat="49.39455" lon="-1.73922">
        <ele>70.3</ele>
        <time>2022-03-14T15:17:21Z</time>
      </trkpt>
      <trkpt lat="49.3946" lon="-1.73927">
        <ele>70.2</ele>
        <time>2022-03-14T15:17:24Z</time>
      </trkpt>
      <trkpt lat="49.39464" lon="-1.73933">
        <ele>70.1</ele>
        <time>2022-03-14T15:17:29Z</time>
      </trkpt>
      <trkpt lat="49.39466" lon="-1.73938">
        <ele>69.8</ele>
        <time>2022-03-14T15:17:32Z</time>
      </trkpt>
      <trkpt lat="49.3947" lon="-1.73944">
        <ele>69.5</ele>
        <time>2022-03-14T15:17:36Z</time>
      </trkpt>
      <trkpt lat="49.39474" lon="-1.73948">
        <ele>69.2</ele>
        <time>2022-03-14T15:17:39Z</time>
      </trkpt>
      <trkpt lat="49.39478" lon="-1.7395">
        <ele>69</ele>
        <time>2022-03-14T15:17:42Z</time>
      </trkpt>
      <trkpt lat="49.39482" lon="-1.73943">
        <ele>68.7</ele>
        <time>2022-03-14T15:18:00Z</time>
      </trkpt>
      <trkpt lat="49.39485" lon="-1.73937">
        <ele>68.9</ele>
        <time>2022-03-14T15:18:03Z</time>
      </trkpt>
      <trkpt lat="49.39489" lon="-1.7393">
        <ele>69.1</ele>
        <time>2022-03-14T15:18:07Z</time>
      </trkpt>
      <trkpt lat="49.39492" lon="-1.73922">
        <ele>69.2</ele>
        <time>2022-03-14T15:18:12Z</time>
      </trkpt>
      <trkpt lat="49.39494" lon="-1.73915">
        <ele>69.4</ele>
        <time>2022-03-14T15:18:15Z</time>
      </trkpt>
      <trkpt lat="49.39497" lon="-1.7391">
        <ele>69.4</ele>
        <time>2022-03-14T15:18:19Z</time>
      </trkpt>
      <trkpt lat="49.395" lon="-1.73903">
        <ele>69.6</ele>
        <time>2022-03-14T15:18:22Z</time>
      </trkpt>
      <trkpt lat="49.39502" lon="-1.73894">
        <ele>69.6</ele>
        <time>2022-03-14T15:18:28Z</time>
      </trkpt>
      <trkpt lat="49.39505" lon="-1.73888">
        <ele>69.7</ele>
        <time>2022-03-14T15:18:32Z</time>
      </trkpt>
      <trkpt lat="49.39509" lon="-1.73892">
        <ele>69.6</ele>
        <time>2022-03-14T15:18:46Z</time>
      </trkpt>
      <trkpt lat="49.39511" lon="-1.73883">
        <ele>69.4</ele>
        <time>2022-03-14T15:18:50Z</time>
      </trkpt>
      <trkpt lat="49.3951" lon="-1.73875">
        <ele>69.4</ele>
        <time>2022-03-14T15:18:52Z</time>
      </trkpt>
      <trkpt lat="49.39509" lon="-1.73868">
        <ele>69.6</ele>
        <time>2022-03-14T15:18:57Z</time>
      </trkpt>
      <trkpt lat="49.39513" lon="-1.73862">
        <ele>69.8</ele>
        <time>2022-03-14T15:19:03Z</time>
      </trkpt>
      <trkpt lat="49.39515" lon="-1.73853">
        <ele>69.8</ele>
        <time>2022-03-14T15:19:07Z</time>
      </trkpt>
      <trkpt lat="49.39515" lon="-1.73844">
        <ele>69.8</ele>
        <time>2022-03-14T15:19:10Z</time>
      </trkpt>
      <trkpt lat="49.39515" lon="-1.73836">
        <ele>69.8</ele>
        <time>2022-03-14T15:19:13Z</time>
      </trkpt>
      <trkpt lat="49.39516" lon="-1.73829">
        <ele>69.8</ele>
        <time>2022-03-14T15:19:17Z</time>
      </trkpt>
      <trkpt lat="49.39518" lon="-1.73823">
        <ele>69.9</ele>
        <time>2022-03-14T15:19:20Z</time>
      </trkpt>
      <trkpt lat="49.39521" lon="-1.73817">
        <ele>70.1</ele>
        <time>2022-03-14T15:19:25Z</time>
      </trkpt>
      <trkpt lat="49.39521" lon="-1.73809">
        <ele>69.9</ele>
        <time>2022-03-14T15:19:42Z</time>
      </trkpt>
      <trkpt lat="49.39524" lon="-1.73802">
        <ele>70</ele>
        <time>2022-03-14T15:19:49Z</time>
      </trkpt>
      <trkpt lat="49.39528" lon="-1.73795">
        <ele>70.2</ele>
        <time>2022-03-14T15:19:54Z</time>
      </trkpt>
      <trkpt lat="49.39532" lon="-1.73789">
        <ele>70.5</ele>
        <time>2022-03-14T15:19:57Z</time>
      </trkpt>
      <trkpt lat="49.39534" lon="-1.73782">
        <ele>70.7</ele>
        <time>2022-03-14T15:20:01Z</time>
      </trkpt>
      <trkpt lat="49.39537" lon="-1.73776">
        <ele>70.6</ele>
        <time>2022-03-14T15:20:07Z</time>
      </trkpt>
      <trkpt lat="49.39538" lon="-1.73767">
        <ele>70.4</ele>
        <time>2022-03-14T15:20:12Z</time>
      </trkpt>
      <trkpt lat="49.3954" lon="-1.7376">
        <ele>70.2</ele>
        <time>2022-03-14T15:20:17Z</time>
      </trkpt>
      <trkpt lat="49.39541" lon="-1.73752">
        <ele>69.8</ele>
        <time>2022-03-14T15:20:22Z</time>
      </trkpt>
      <trkpt lat="49.39545" lon="-1.73745">
        <ele>69.2</ele>
        <time>2022-03-14T15:20:27Z</time>
      </trkpt>
      <trkpt lat="49.39548" lon="-1.73739">
        <ele>68.7</ele>
        <time>2022-03-14T15:20:31Z</time>
      </trkpt>
      <trkpt lat="49.39551" lon="-1.73732">
        <ele>68.6</ele>
        <time>2022-03-14T15:20:36Z</time>
      </trkpt>
      <trkpt lat="49.39554" lon="-1.73726">
        <ele>68.6</ele>
        <time>2022-03-14T15:20:39Z</time>
      </trkpt>
      <trkpt lat="49.39556" lon="-1.7372">
        <ele>68.5</ele>
        <time>2022-03-14T15:20:43Z</time>
      </trkpt>
      <trkpt lat="49.3956" lon="-1.73714">
        <ele>68.1</ele>
        <time>2022-03-14T15:20:48Z</time>
      </trkpt>
      <trkpt lat="49.39562" lon="-1.73707">
        <ele>67.8</ele>
        <time>2022-03-14T15:20:52Z</time>
      </trkpt>
      <trkpt lat="49.39564" lon="-1.73699">
        <ele>67.4</ele>
        <time>2022-03-14T15:20:56Z</time>
      </trkpt>
      <trkpt lat="49.39565" lon="-1.73691">
        <ele>67.1</ele>
        <time>2022-03-14T15:21:01Z</time>
      </trkpt>
      <trkpt lat="49.39568" lon="-1.73683">
        <ele>66.9</ele>
        <time>2022-03-14T15:21:05Z</time>
      </trkpt>
      <trkpt lat="49.3957" lon="-1.73677">
        <ele>66.9</ele>
        <time>2022-03-14T15:21:09Z</time>
      </trkpt>
      <trkpt lat="49.39572" lon="-1.73669">
        <ele>66.8</ele>
        <time>2022-03-14T15:21:13Z</time>
      </trkpt>
      <trkpt lat="49.39575" lon="-1.73663">
        <ele>66.8</ele>
        <time>2022-03-14T15:21:17Z</time>
      </trkpt>
      <trkpt lat="49.39578" lon="-1.73656">
        <ele>66.8</ele>
        <time>2022-03-14T15:21:22Z</time>
      </trkpt>
      <trkpt lat="49.39581" lon="-1.73648">
        <ele>66.8</ele>
        <time>2022-03-14T15:21:28Z</time>
      </trkpt>
      <trkpt lat="49.39584" lon="-1.73641">
        <ele>66.6</ele>
        <time>2022-03-14T15:21:32Z</time>
      </trkpt>
      <trkpt lat="49.39586" lon="-1.73635">
        <ele>66.6</ele>
        <time>2022-03-14T15:21:37Z</time>
      </trkpt>
      <trkpt lat="49.39591" lon="-1.73632">
        <ele>66.5</ele>
        <time>2022-03-14T15:21:42Z</time>
      </trkpt>
      <trkpt lat="49.39593" lon="-1.73621">
        <ele>66.5</ele>
        <time>2022-03-14T15:21:48Z</time>
      </trkpt>
      <trkpt lat="49.39592" lon="-1.73613">
        <ele>66.7</ele>
        <time>2022-03-14T15:22:02Z</time>
      </trkpt>
      <trkpt lat="49.39595" lon="-1.73606">
        <ele>66.8</ele>
        <time>2022-03-14T15:22:05Z</time>
      </trkpt>
      <trkpt lat="49.39599" lon="-1.73599">
        <ele>66.7</ele>
        <time>2022-03-14T15:22:09Z</time>
      </trkpt>
      <trkpt lat="49.39603" lon="-1.73593">
        <ele>66.4</ele>
        <time>2022-03-14T15:22:13Z</time>
      </trkpt>
      <trkpt lat="49.39608" lon="-1.73586">
        <ele>66.1</ele>
        <time>2022-03-14T15:22:17Z</time>
      </trkpt>
      <trkpt lat="49.39612" lon="-1.73578">
        <ele>65.9</ele>
        <time>2022-03-14T15:22:23Z</time>
      </trkpt>
      <trkpt lat="49.39614" lon="-1.73572">
        <ele>65.7</ele>
        <time>2022-03-14T15:22:31Z</time>
      </trkpt>
      <trkpt lat="49.39618" lon="-1.73567">
        <ele>65.7</ele>
        <time>2022-03-14T15:22:35Z</time>
      </trkpt>
      <trkpt lat="49.39622" lon="-1.73561">
        <ele>65.5</ele>
        <time>2022-03-14T15:22:39Z</time>
      </trkpt>
      <trkpt lat="49.39627" lon="-1.73555">
        <ele>65.2</ele>
        <time>2022-03-14T15:22:43Z</time>
      </trkpt>
      <trkpt lat="49.39631" lon="-1.73551">
        <ele>65.2</ele>
        <time>2022-03-14T15:22:46Z</time>
      </trkpt>
      <trkpt lat="49.39633" lon="-1.73544">
        <ele>65</ele>
        <time>2022-03-14T15:22:51Z</time>
      </trkpt>
      <trkpt lat="49.39637" lon="-1.7354">
        <ele>64.8</ele>
        <time>2022-03-14T15:22:56Z</time>
      </trkpt>
      <trkpt lat="49.39642" lon="-1.73535">
        <ele>64.5</ele>
        <time>2022-03-14T15:23:00Z</time>
      </trkpt>
      <trkpt lat="49.39645" lon="-1.7353">
        <ele>64.4</ele>
        <time>2022-03-14T15:23:04Z</time>
      </trkpt>
      <trkpt lat="49.39648" lon="-1.73524">
        <ele>64.2</ele>
        <time>2022-03-14T15:23:09Z</time>
      </trkpt>
      <trkpt lat="49.39652" lon="-1.73519">
        <ele>63.9</ele>
        <time>2022-03-14T15:23:17Z</time>
      </trkpt>
      <trkpt lat="49.39657" lon="-1.73516">
        <ele>63.7</ele>
        <time>2022-03-14T15:23:26Z</time>
      </trkpt>
      <trkpt lat="49.39661" lon="-1.73512">
        <ele>63.3</ele>
        <time>2022-03-14T15:23:32Z</time>
      </trkpt>
      <trkpt lat="49.39664" lon="-1.73507">
        <ele>62.9</ele>
        <time>2022-03-14T15:23:37Z</time>
      </trkpt>
      <trkpt lat="49.39669" lon="-1.73504">
        <ele>62.4</ele>
        <time>2022-03-14T15:23:42Z</time>
      </trkpt>
      <trkpt lat="49.39673" lon="-1.735">
        <ele>62.1</ele>
        <time>2022-03-14T15:23:46Z</time>
      </trkpt>
      <trkpt lat="49.39677" lon="-1.73494">
        <ele>61.8</ele>
        <time>2022-03-14T15:23:51Z</time>
      </trkpt>
      <trkpt lat="49.39681" lon="-1.73489">
        <ele>61.5</ele>
        <time>2022-03-14T15:23:55Z</time>
      </trkpt>
      <trkpt lat="49.39686" lon="-1.73485">
        <ele>61.4</ele>
        <time>2022-03-14T15:24:00Z</time>
      </trkpt>
      <trkpt lat="49.3969" lon="-1.7348">
        <ele>61.4</ele>
        <time>2022-03-14T15:24:05Z</time>
      </trkpt>
      <trkpt lat="49.39694" lon="-1.73476">
        <ele>61.4</ele>
        <time>2022-03-14T15:24:08Z</time>
      </trkpt>
      <trkpt lat="49.39698" lon="-1.73471">
        <ele>61.3</ele>
        <time>2022-03-14T15:24:12Z</time>
      </trkpt>
      <trkpt lat="49.39702" lon="-1.73468">
        <ele>61.4</ele>
        <time>2022-03-14T15:24:15Z</time>
      </trkpt>
      <trkpt lat="49.39706" lon="-1.73463">
        <ele>61.4</ele>
        <time>2022-03-14T15:24:19Z</time>
      </trkpt>
      <trkpt lat="49.39711" lon="-1.73457">
        <ele>61.6</ele>
        <time>2022-03-14T15:24:23Z</time>
      </trkpt>
      <trkpt lat="49.39715" lon="-1.73451">
        <ele>61.4</ele>
        <time>2022-03-14T15:24:27Z</time>
      </trkpt>
      <trkpt lat="49.39721" lon="-1.73446">
        <ele>61.2</ele>
        <time>2022-03-14T15:24:32Z</time>
      </trkpt>
      <trkpt lat="49.39725" lon="-1.73442">
        <ele>61</ele>
        <time>2022-03-14T15:24:37Z</time>
      </trkpt>
      <trkpt lat="49.39728" lon="-1.73447">
        <ele>61</ele>
        <time>2022-03-14T15:24:46Z</time>
      </trkpt>
      <trkpt lat="49.3973" lon="-1.73438">
        <ele>61</ele>
        <time>2022-03-14T15:24:55Z</time>
      </trkpt>
      <trkpt lat="49.39733" lon="-1.73432">
        <ele>61.3</ele>
        <time>2022-03-14T15:24:59Z</time>
      </trkpt>
      <trkpt lat="49.39736" lon="-1.73426">
        <ele>61.5</ele>
        <time>2022-03-14T15:25:02Z</time>
      </trkpt>
      <trkpt lat="49.39742" lon="-1.7342">
        <ele>61.5</ele>
        <time>2022-03-14T15:25:07Z</time>
      </trkpt>
      <trkpt lat="49.39747" lon="-1.73416">
        <ele>61.3</ele>
        <time>2022-03-14T15:25:12Z</time>
      </trkpt>
      <trkpt lat="49.39751" lon="-1.73413">
        <ele>61.2</ele>
        <time>2022-03-14T15:25:16Z</time>
      </trkpt>
      <trkpt lat="49.39755" lon="-1.73408">
        <ele>61.2</ele>
        <time>2022-03-14T15:25:19Z</time>
      </trkpt>
      <trkpt lat="49.3976" lon="-1.73404">
        <ele>61.2</ele>
        <time>2022-03-14T15:25:24Z</time>
      </trkpt>
      <trkpt lat="49.39764" lon="-1.73398">
        <ele>61.1</ele>
        <time>2022-03-14T15:25:28Z</time>
      </trkpt>
      <trkpt lat="49.39768" lon="-1.73393">
        <ele>61</ele>
        <time>2022-03-14T15:25:32Z</time>
      </trkpt>
      <trkpt lat="49.39772" lon="-1.73389">
        <ele>61.2</ele>
        <time>2022-03-14T15:25:36Z</time>
      </trkpt>
      <trkpt lat="49.39776" lon="-1.73381">
        <ele>61.5</ele>
        <time>2022-03-14T15:25:40Z</time>
      </trkpt>
      <trkpt lat="49.39779" lon="-1.73376">
        <ele>61.3</ele>
        <time>2022-03-14T15:25:45Z</time>
      </trkpt>
      <trkpt lat="49.39783" lon="-1.73373">
        <ele>60.9</ele>
        <time>2022-03-14T15:25:48Z</time>
      </trkpt>
      <trkpt lat="49.39788" lon="-1.73369">
        <ele>61.1</ele>
        <time>2022-03-14T15:25:53Z</time>
      </trkpt>
      <trkpt lat="49.39784" lon="-1.73373">
        <ele>62.6</ele>
        <time>2022-03-14T15:26:09Z</time>
      </trkpt>
      <trkpt lat="49.39778" lon="-1.73375">
        <ele>62.2</ele>
        <time>2022-03-14T15:26:13Z</time>
      </trkpt>
      <trkpt lat="49.39775" lon="-1.73382">
        <ele>61.8</ele>
        <time>2022-03-14T15:26:16Z</time>
      </trkpt>
      <trkpt lat="49.39778" lon="-1.73378">
        <ele>61.4</ele>
        <time>2022-03-14T15:26:23Z</time>
      </trkpt>
      <trkpt lat="49.39783" lon="-1.73373">
        <ele>61.5</ele>
        <time>2022-03-14T15:26:27Z</time>
      </trkpt>
      <trkpt lat="49.39787" lon="-1.73369">
        <ele>61.6</ele>
        <time>2022-03-14T15:26:30Z</time>
      </trkpt>
      <trkpt lat="49.39792" lon="-1.73364">
        <ele>61.9</ele>
        <time>2022-03-14T15:26:35Z</time>
      </trkpt>
      <trkpt lat="49.39797" lon="-1.7336">
        <ele>62.4</ele>
        <time>2022-03-14T15:26:40Z</time>
      </trkpt>
      <trkpt lat="49.39802" lon="-1.73355">
        <ele>62.8</ele>
        <time>2022-03-14T15:26:44Z</time>
      </trkpt>
      <trkpt lat="49.39805" lon="-1.73351">
        <ele>62.7</ele>
        <time>2022-03-14T15:26:47Z</time>
      </trkpt>
      <trkpt lat="49.39809" lon="-1.73347">
        <ele>62.8</ele>
        <time>2022-03-14T15:26:51Z</time>
      </trkpt>
      <trkpt lat="49.39813" lon="-1.73342">
        <ele>62.9</ele>
        <time>2022-03-14T15:26:55Z</time>
      </trkpt>
      <trkpt lat="49.39818" lon="-1.7334">
        <ele>62.9</ele>
        <time>2022-03-14T15:27:00Z</time>
      </trkpt>
      <trkpt lat="49.39823" lon="-1.73341">
        <ele>62.8</ele>
        <time>2022-03-14T15:27:05Z</time>
      </trkpt>
      <trkpt lat="49.39827" lon="-1.73341">
        <ele>62.7</ele>
        <time>2022-03-14T15:27:11Z</time>
      </trkpt>
      <trkpt lat="49.39832" lon="-1.7334">
        <ele>62.3</ele>
        <time>2022-03-14T15:27:17Z</time>
      </trkpt>
      <trkpt lat="49.39837" lon="-1.73335">
        <ele>62.2</ele>
        <time>2022-03-14T15:27:21Z</time>
      </trkpt>
      <trkpt lat="49.39842" lon="-1.7333">
        <ele>62.1</ele>
        <time>2022-03-14T15:27:23Z</time>
      </trkpt>
      <trkpt lat="49.39845" lon="-1.73325">
        <ele>62.1</ele>
        <time>2022-03-14T15:27:25Z</time>
      </trkpt>
      <trkpt lat="49.39849" lon="-1.73318">
        <ele>61.7</ele>
        <time>2022-03-14T15:27:29Z</time>
      </trkpt>
      <trkpt lat="49.39844" lon="-1.73318">
        <ele>62</ele>
        <time>2022-03-14T15:27:57Z</time>
      </trkpt>
      <trkpt lat="49.39848" lon="-1.73318">
        <ele>59.8</ele>
        <time>2022-03-14T15:28:26Z</time>
      </trkpt>
      <trkpt lat="49.39854" lon="-1.73313">
        <ele>58.3</ele>
        <time>2022-03-14T15:28:34Z</time>
      </trkpt>
      <trkpt lat="49.39858" lon="-1.73308">
        <ele>57.8</ele>
        <time>2022-03-14T15:28:38Z</time>
      </trkpt>
      <trkpt lat="49.39862" lon="-1.73304">
        <ele>57.5</ele>
        <time>2022-03-14T15:28:42Z</time>
      </trkpt>
      <trkpt lat="49.39867" lon="-1.733">
        <ele>57.5</ele>
        <time>2022-03-14T15:28:49Z</time>
      </trkpt>
      <trkpt lat="49.39871" lon="-1.73296">
        <ele>57.4</ele>
        <time>2022-03-14T15:28:52Z</time>
      </trkpt>
      <trkpt lat="49.39875" lon="-1.73293">
        <ele>57.3</ele>
        <time>2022-03-14T15:28:55Z</time>
      </trkpt>
      <trkpt lat="49.3988" lon="-1.73289">
        <ele>57.1</ele>
        <time>2022-03-14T15:28:58Z</time>
      </trkpt>
      <trkpt lat="49.39885" lon="-1.73283">
        <ele>57</ele>
        <time>2022-03-14T15:29:02Z</time>
      </trkpt>
      <trkpt lat="49.39889" lon="-1.73276">
        <ele>56.8</ele>
        <time>2022-03-14T15:29:05Z</time>
      </trkpt>
      <trkpt lat="49.39893" lon="-1.73271">
        <ele>56.7</ele>
        <time>2022-03-14T15:29:08Z</time>
      </trkpt>
      <trkpt lat="49.39897" lon="-1.73267">
        <ele>56.2</ele>
        <time>2022-03-14T15:29:12Z</time>
      </trkpt>
      <trkpt lat="49.39901" lon="-1.73262">
        <ele>56</ele>
        <time>2022-03-14T15:29:15Z</time>
      </trkpt>
      <trkpt lat="49.39905" lon="-1.73257">
        <ele>55.9</ele>
        <time>2022-03-14T15:29:19Z</time>
      </trkpt>
      <trkpt lat="49.39909" lon="-1.73251">
        <ele>57.1</ele>
        <time>2022-03-14T15:29:28Z</time>
      </trkpt>
      <trkpt lat="49.39913" lon="-1.73247">
        <ele>57.2</ele>
        <time>2022-03-14T15:29:31Z</time>
      </trkpt>
      <trkpt lat="49.39919" lon="-1.73242">
        <ele>56.9</ele>
        <time>2022-03-14T15:29:34Z</time>
      </trkpt>
      <trkpt lat="49.39925" lon="-1.73237">
        <ele>56.2</ele>
        <time>2022-03-14T15:29:37Z</time>
      </trkpt>
      <trkpt lat="49.39929" lon="-1.73232">
        <ele>55.6</ele>
        <time>2022-03-14T15:29:40Z</time>
      </trkpt>
      <trkpt lat="49.39933" lon="-1.73227">
        <ele>52.3</ele>
        <time>2022-03-14T15:30:02Z</time>
      </trkpt>
      <trkpt lat="49.39935" lon="-1.7322">
        <ele>51.8</ele>
        <time>2022-03-14T15:30:07Z</time>
      </trkpt>
      <trkpt lat="49.39938" lon="-1.73215">
        <ele>51.5</ele>
        <time>2022-03-14T15:30:11Z</time>
      </trkpt>
      <trkpt lat="49.39941" lon="-1.73208">
        <ele>51.4</ele>
        <time>2022-03-14T15:30:17Z</time>
      </trkpt>
      <trkpt lat="49.39944" lon="-1.73201">
        <ele>51.4</ele>
        <time>2022-03-14T15:30:22Z</time>
      </trkpt>
      <trkpt lat="49.39947" lon="-1.73194">
        <ele>51.2</ele>
        <time>2022-03-14T15:30:25Z</time>
      </trkpt>
      <trkpt lat="49.39949" lon="-1.73188">
        <ele>51.1</ele>
        <time>2022-03-14T15:30:29Z</time>
      </trkpt>
      <trkpt lat="49.39952" lon="-1.73183">
        <ele>50.9</ele>
        <time>2022-03-14T15:30:32Z</time>
      </trkpt>
      <trkpt lat="49.39957" lon="-1.73177">
        <ele>49.8</ele>
        <time>2022-03-14T15:30:35Z</time>
      </trkpt>
      <trkpt lat="49.39961" lon="-1.73171">
        <ele>48.7</ele>
        <time>2022-03-14T15:30:39Z</time>
      </trkpt>
      <trkpt lat="49.39964" lon="-1.73166">
        <ele>47.7</ele>
        <time>2022-03-14T15:30:43Z</time>
      </trkpt>
      <trkpt lat="49.39968" lon="-1.73162">
        <ele>46</ele>
        <time>2022-03-14T15:30:50Z</time>
      </trkpt>
      <trkpt lat="49.39973" lon="-1.73157">
        <ele>44.9</ele>
        <time>2022-03-14T15:30:55Z</time>
      </trkpt>
      <trkpt lat="49.39976" lon="-1.73151">
        <ele>44.3</ele>
        <time>2022-03-14T15:30:58Z</time>
      </trkpt>
      <trkpt lat="49.3998" lon="-1.73145">
        <ele>43.4</ele>
        <time>2022-03-14T15:31:01Z</time>
      </trkpt>
      <trkpt lat="49.39984" lon="-1.7314">
        <ele>42.5</ele>
        <time>2022-03-14T15:31:04Z</time>
      </trkpt>
      <trkpt lat="49.39988" lon="-1.73133">
        <ele>42</ele>
        <time>2022-03-14T15:31:07Z</time>
      </trkpt>
      <trkpt lat="49.3999" lon="-1.73127">
        <ele>41.6</ele>
        <time>2022-03-14T15:31:10Z</time>
      </trkpt>
      <trkpt lat="49.39993" lon="-1.73122">
        <ele>41.2</ele>
        <time>2022-03-14T15:31:13Z</time>
      </trkpt>
      <trkpt lat="49.39996" lon="-1.73114">
        <ele>40.5</ele>
        <time>2022-03-14T15:31:18Z</time>
      </trkpt>
      <trkpt lat="49.4" lon="-1.73109">
        <ele>40.1</ele>
        <time>2022-03-14T15:31:21Z</time>
      </trkpt>
      <trkpt lat="49.40004" lon="-1.73104">
        <ele>39.7</ele>
        <time>2022-03-14T15:31:34Z</time>
      </trkpt>
      <trkpt lat="49.40007" lon="-1.73098">
        <ele>39.4</ele>
        <time>2022-03-14T15:31:38Z</time>
      </trkpt>
      <trkpt lat="49.40009" lon="-1.7309">
        <ele>39.4</ele>
        <time>2022-03-14T15:31:41Z</time>
      </trkpt>
      <trkpt lat="49.40013" lon="-1.73085">
        <ele>39.1</ele>
        <time>2022-03-14T15:31:45Z</time>
      </trkpt>
      <trkpt lat="49.40016" lon="-1.73079">
        <ele>39</ele>
        <time>2022-03-14T15:31:48Z</time>
      </trkpt>
      <trkpt lat="49.40018" lon="-1.73071">
        <ele>38.8</ele>
        <time>2022-03-14T15:31:52Z</time>
      </trkpt>
      <trkpt lat="49.40021" lon="-1.73064">
        <ele>38.5</ele>
        <time>2022-03-14T15:31:56Z</time>
      </trkpt>
      <trkpt lat="49.40026" lon="-1.73062">
        <ele>38.1</ele>
        <time>2022-03-14T15:32:00Z</time>
      </trkpt>
      <trkpt lat="49.4003" lon="-1.73059">
        <ele>37.9</ele>
        <time>2022-03-14T15:32:03Z</time>
      </trkpt>
      <trkpt lat="49.40035" lon="-1.73057">
        <ele>37.6</ele>
        <time>2022-03-14T15:32:06Z</time>
      </trkpt>
      <trkpt lat="49.4004" lon="-1.73055">
        <ele>37.3</ele>
        <time>2022-03-14T15:32:09Z</time>
      </trkpt>
      <trkpt lat="49.40045" lon="-1.73052">
        <ele>37.1</ele>
        <time>2022-03-14T15:32:12Z</time>
      </trkpt>
      <trkpt lat="49.40049" lon="-1.73047">
        <ele>37</ele>
        <time>2022-03-14T15:32:17Z</time>
      </trkpt>
      <trkpt lat="49.40049" lon="-1.73038">
        <ele>37.7</ele>
        <time>2022-03-14T15:32:37Z</time>
      </trkpt>
      <trkpt lat="49.40053" lon="-1.73033">
        <ele>37.9</ele>
        <time>2022-03-14T15:32:41Z</time>
      </trkpt>
      <trkpt lat="49.40055" lon="-1.73039">
        <ele>37.1</ele>
        <time>2022-03-14T15:32:48Z</time>
      </trkpt>
      <trkpt lat="49.40051" lon="-1.73041">
        <ele>35.4</ele>
        <time>2022-03-14T15:33:10Z</time>
      </trkpt>
      <trkpt lat="49.40047" lon="-1.73038">
        <ele>34.8</ele>
        <time>2022-03-14T15:33:34Z</time>
      </trkpt>
      <trkpt lat="49.40042" lon="-1.73044">
        <ele>35.1</ele>
        <time>2022-03-14T15:33:38Z</time>
      </trkpt>
      <trkpt lat="49.40038" lon="-1.73051">
        <ele>35.3</ele>
        <time>2022-03-14T15:33:42Z</time>
      </trkpt>
      <trkpt lat="49.40034" lon="-1.73057">
        <ele>35.4</ele>
        <time>2022-03-14T15:33:46Z</time>
      </trkpt>
      <trkpt lat="49.40029" lon="-1.73058">
        <ele>35.7</ele>
        <time>2022-03-14T15:34:01Z</time>
      </trkpt>
      <trkpt lat="49.40025" lon="-1.73054">
        <ele>34.8</ele>
        <time>2022-03-14T15:34:23Z</time>
      </trkpt>
      <trkpt lat="49.40022" lon="-1.73061">
        <ele>33.2</ele>
        <time>2022-03-14T15:35:28Z</time>
      </trkpt>
      <trkpt lat="49.40017" lon="-1.73063">
        <ele>33.3</ele>
        <time>2022-03-14T15:35:30Z</time>
      </trkpt>
      <trkpt lat="49.40013" lon="-1.73063">
        <ele>33.6</ele>
        <time>2022-03-14T15:35:33Z</time>
      </trkpt>
      <trkpt lat="49.40009" lon="-1.73058">
        <ele>33.8</ele>
        <time>2022-03-14T15:35:37Z</time>
      </trkpt>
      <trkpt lat="49.40004" lon="-1.73057">
        <ele>34.5</ele>
        <time>2022-03-14T15:35:46Z</time>
      </trkpt>
      <trkpt lat="49.4" lon="-1.73053">
        <ele>35</ele>
        <time>2022-03-14T15:35:50Z</time>
      </trkpt>
      <trkpt lat="49.39998" lon="-1.73045">
        <ele>35.4</ele>
        <time>2022-03-14T15:35:55Z</time>
      </trkpt>
      <trkpt lat="49.39999" lon="-1.73037">
        <ele>35.9</ele>
        <time>2022-03-14T15:36:06Z</time>
      </trkpt>
      <trkpt lat="49.39994" lon="-1.73034">
        <ele>35.4</ele>
        <time>2022-03-14T15:36:11Z</time>
      </trkpt>
      <trkpt lat="49.3999" lon="-1.73038">
        <ele>36.6</ele>
        <time>2022-03-14T15:37:46Z</time>
      </trkpt>
      <trkpt lat="49.39986" lon="-1.73032">
        <ele>37</ele>
        <time>2022-03-14T15:38:03Z</time>
      </trkpt>
      <trkpt lat="49.39981" lon="-1.7303">
        <ele>37.2</ele>
        <time>2022-03-14T15:38:09Z</time>
      </trkpt>
      <trkpt lat="49.39975" lon="-1.7303">
        <ele>37.8</ele>
        <time>2022-03-14T15:38:14Z</time>
      </trkpt>
      <trkpt lat="49.39971" lon="-1.73026">
        <ele>38.3</ele>
        <time>2022-03-14T15:38:18Z</time>
      </trkpt>
      <trkpt lat="49.39976" lon="-1.73029">
        <ele>38.8</ele>
        <time>2022-03-14T15:38:27Z</time>
      </trkpt>
      <trkpt lat="49.39981" lon="-1.73034">
        <ele>38.9</ele>
        <time>2022-03-14T15:38:30Z</time>
      </trkpt>
      <trkpt lat="49.39985" lon="-1.73041">
        <ele>38.9</ele>
        <time>2022-03-14T15:38:33Z</time>
      </trkpt>
      <trkpt lat="49.39988" lon="-1.73046">
        <ele>38.9</ele>
        <time>2022-03-14T15:38:36Z</time>
      </trkpt>
      <trkpt lat="49.39992" lon="-1.73053">
        <ele>38.7</ele>
        <time>2022-03-14T15:38:50Z</time>
      </trkpt>
      <trkpt lat="49.39999" lon="-1.73059">
        <ele>38.3</ele>
        <time>2022-03-14T15:38:53Z</time>
      </trkpt>
      <trkpt lat="49.40006" lon="-1.73066">
        <ele>38.2</ele>
        <time>2022-03-14T15:38:56Z</time>
      </trkpt>
      <trkpt lat="49.40012" lon="-1.73072">
        <ele>38.1</ele>
        <time>2022-03-14T15:38:59Z</time>
      </trkpt>
      <trkpt lat="49.40017" lon="-1.73072">
        <ele>37.8</ele>
        <time>2022-03-14T15:39:30Z</time>
      </trkpt>
      <trkpt lat="49.40022" lon="-1.73069">
        <ele>37.6</ele>
        <time>2022-03-14T15:39:33Z</time>
      </trkpt>
      <trkpt lat="49.40043" lon="-1.73056">
        <ele>36.4</ele>
        <time>2022-03-14T15:39:46Z</time>
      </trkpt>
      <trkpt lat="49.40048" lon="-1.73052">
        <ele>35.8</ele>
        <time>2022-03-14T15:39:50Z</time>
      </trkpt>
      <trkpt lat="49.40046" lon="-1.73045">
        <ele>35.5</ele>
        <time>2022-03-14T15:39:53Z</time>
      </trkpt>
      <trkpt lat="49.40048" lon="-1.73038">
        <ele>35.4</ele>
        <time>2022-03-14T15:39:57Z</time>
      </trkpt>
      <trkpt lat="49.40051" lon="-1.7303">
        <ele>35.3</ele>
        <time>2022-03-14T15:40:02Z</time>
      </trkpt>
      <trkpt lat="49.40052" lon="-1.73021">
        <ele>35.5</ele>
        <time>2022-03-14T15:40:06Z</time>
      </trkpt>
      <trkpt lat="49.40056" lon="-1.73018">
        <ele>35.8</ele>
        <time>2022-03-14T15:40:09Z</time>
      </trkpt>
      <trkpt lat="49.4006" lon="-1.73013">
        <ele>36.3</ele>
        <time>2022-03-14T15:40:13Z</time>
      </trkpt>
      <trkpt lat="49.40063" lon="-1.73007">
        <ele>36.7</ele>
        <time>2022-03-14T15:40:20Z</time>
      </trkpt>
      <trkpt lat="49.40065" lon="-1.73">
        <ele>36.7</ele>
        <time>2022-03-14T15:40:24Z</time>
      </trkpt>
      <trkpt lat="49.40067" lon="-1.72991">
        <ele>36.6</ele>
        <time>2022-03-14T15:40:28Z</time>
      </trkpt>
      <trkpt lat="49.4007" lon="-1.72985">
        <ele>36.5</ele>
        <time>2022-03-14T15:40:31Z</time>
      </trkpt>
      <trkpt lat="49.40072" lon="-1.72977">
        <ele>36.2</ele>
        <time>2022-03-14T15:40:36Z</time>
      </trkpt>
      <trkpt lat="49.40075" lon="-1.72967">
        <ele>36</ele>
        <time>2022-03-14T15:40:41Z</time>
      </trkpt>
      <trkpt lat="49.40078" lon="-1.72962">
        <ele>35.8</ele>
        <time>2022-03-14T15:40:51Z</time>
      </trkpt>
      <trkpt lat="49.40082" lon="-1.72954">
        <ele>35.7</ele>
        <time>2022-03-14T15:40:54Z</time>
      </trkpt>
      <trkpt lat="49.40085" lon="-1.72948">
        <ele>35.7</ele>
        <time>2022-03-14T15:40:58Z</time>
      </trkpt>
      <trkpt lat="49.4009" lon="-1.72947">
        <ele>35.6</ele>
        <time>2022-03-14T15:41:01Z</time>
      </trkpt>
      <trkpt lat="49.40095" lon="-1.72946">
        <ele>35.6</ele>
        <time>2022-03-14T15:41:05Z</time>
      </trkpt>
      <trkpt lat="49.401" lon="-1.72946">
        <ele>35.7</ele>
        <time>2022-03-14T15:41:08Z</time>
      </trkpt>
      <trkpt lat="49.40105" lon="-1.72945">
        <ele>36</ele>
        <time>2022-03-14T15:41:12Z</time>
      </trkpt>
      <trkpt lat="49.40109" lon="-1.72946">
        <ele>36.4</ele>
        <time>2022-03-14T15:41:15Z</time>
      </trkpt>
      <trkpt lat="49.40114" lon="-1.72945">
        <ele>36.8</ele>
        <time>2022-03-14T15:41:19Z</time>
      </trkpt>
      <trkpt lat="49.40119" lon="-1.72943">
        <ele>37.1</ele>
        <time>2022-03-14T15:41:24Z</time>
      </trkpt>
      <trkpt lat="49.40123" lon="-1.72943">
        <ele>37.3</ele>
        <time>2022-03-14T15:41:27Z</time>
      </trkpt>
      <trkpt lat="49.40129" lon="-1.72944">
        <ele>37.6</ele>
        <time>2022-03-14T15:41:32Z</time>
      </trkpt>
      <trkpt lat="49.40134" lon="-1.72943">
        <ele>37.9</ele>
        <time>2022-03-14T15:41:37Z</time>
      </trkpt>
      <trkpt lat="49.40139" lon="-1.72942">
        <ele>38</ele>
        <time>2022-03-14T15:41:42Z</time>
      </trkpt>
      <trkpt lat="49.40145" lon="-1.72942">
        <ele>37.9</ele>
        <time>2022-03-14T15:41:47Z</time>
      </trkpt>
      <trkpt lat="49.4015" lon="-1.72942">
        <ele>38</ele>
        <time>2022-03-14T15:41:51Z</time>
      </trkpt>
      <trkpt lat="49.40157" lon="-1.72942">
        <ele>38.4</ele>
        <time>2022-03-14T15:41:56Z</time>
      </trkpt>
      <trkpt lat="49.40162" lon="-1.72942">
        <ele>38.8</ele>
        <time>2022-03-14T15:42:00Z</time>
      </trkpt>
      <trkpt lat="49.40167" lon="-1.72941">
        <ele>39.2</ele>
        <time>2022-03-14T15:42:04Z</time>
      </trkpt>
      <trkpt lat="49.40173" lon="-1.72938">
        <ele>39.4</ele>
        <time>2022-03-14T15:42:08Z</time>
      </trkpt>
      <trkpt lat="49.40179" lon="-1.72939">
        <ele>39.6</ele>
        <time>2022-03-14T15:42:12Z</time>
      </trkpt>
      <trkpt lat="49.40183" lon="-1.72939">
        <ele>40</ele>
        <time>2022-03-14T15:42:16Z</time>
      </trkpt>
      <trkpt lat="49.40189" lon="-1.72941">
        <ele>40.6</ele>
        <time>2022-03-14T15:42:20Z</time>
      </trkpt>
      <trkpt lat="49.40194" lon="-1.72941">
        <ele>41.2</ele>
        <time>2022-03-14T15:42:25Z</time>
      </trkpt>
      <trkpt lat="49.402" lon="-1.72939">
        <ele>41.6</ele>
        <time>2022-03-14T15:42:29Z</time>
      </trkpt>
      <trkpt lat="49.40205" lon="-1.72937">
        <ele>41.9</ele>
        <time>2022-03-14T15:42:33Z</time>
      </trkpt>
      <trkpt lat="49.4021" lon="-1.72936">
        <ele>42.2</ele>
        <time>2022-03-14T15:42:38Z</time>
      </trkpt>
      <trkpt lat="49.40215" lon="-1.72936">
        <ele>42.4</ele>
        <time>2022-03-14T15:42:42Z</time>
      </trkpt>
      <trkpt lat="49.4022" lon="-1.72937">
        <ele>42.7</ele>
        <time>2022-03-14T15:42:46Z</time>
      </trkpt>
      <trkpt lat="49.40226" lon="-1.72937">
        <ele>43.4</ele>
        <time>2022-03-14T15:42:51Z</time>
      </trkpt>
      <trkpt lat="49.40231" lon="-1.72935">
        <ele>43.8</ele>
        <time>2022-03-14T15:42:56Z</time>
      </trkpt>
      <trkpt lat="49.40236" lon="-1.72933">
        <ele>44.3</ele>
        <time>2022-03-14T15:43:01Z</time>
      </trkpt>
      <trkpt lat="49.40241" lon="-1.72933">
        <ele>44.6</ele>
        <time>2022-03-14T15:43:05Z</time>
      </trkpt>
      <trkpt lat="49.40247" lon="-1.72933">
        <ele>44.8</ele>
        <time>2022-03-14T15:43:10Z</time>
      </trkpt>
      <trkpt lat="49.40251" lon="-1.72934">
        <ele>45</ele>
        <time>2022-03-14T15:43:15Z</time>
      </trkpt>
      <trkpt lat="49.40257" lon="-1.72933">
        <ele>45.5</ele>
        <time>2022-03-14T15:43:20Z</time>
      </trkpt>
      <trkpt lat="49.40263" lon="-1.72934">
        <ele>45.8</ele>
        <time>2022-03-14T15:43:25Z</time>
      </trkpt>
      <trkpt lat="49.40268" lon="-1.72933">
        <ele>46.3</ele>
        <time>2022-03-14T15:43:29Z</time>
      </trkpt>
      <trkpt lat="49.40274" lon="-1.72933">
        <ele>46.9</ele>
        <time>2022-03-14T15:43:33Z</time>
      </trkpt>
      <trkpt lat="49.40278" lon="-1.72933">
        <ele>47.2</ele>
        <time>2022-03-14T15:43:37Z</time>
      </trkpt>
      <trkpt lat="49.40283" lon="-1.72933">
        <ele>47.2</ele>
        <time>2022-03-14T15:43:42Z</time>
      </trkpt>
      <trkpt lat="49.40289" lon="-1.72932">
        <ele>46.8</ele>
        <time>2022-03-14T15:43:52Z</time>
      </trkpt>
      <trkpt lat="49.40295" lon="-1.72931">
        <ele>47.2</ele>
        <time>2022-03-14T15:43:57Z</time>
      </trkpt>
      <trkpt lat="49.403" lon="-1.72931">
        <ele>47.7</ele>
        <time>2022-03-14T15:44:01Z</time>
      </trkpt>
      <trkpt lat="49.40305" lon="-1.7293">
        <ele>48.1</ele>
        <time>2022-03-14T15:44:05Z</time>
      </trkpt>
      <trkpt lat="49.40311" lon="-1.7293">
        <ele>48.3</ele>
        <time>2022-03-14T15:44:09Z</time>
      </trkpt>
      <trkpt lat="49.40316" lon="-1.72929">
        <ele>48.6</ele>
        <time>2022-03-14T15:44:14Z</time>
      </trkpt>
      <trkpt lat="49.40321" lon="-1.72929">
        <ele>48.9</ele>
        <time>2022-03-14T15:44:18Z</time>
      </trkpt>
      <trkpt lat="49.40327" lon="-1.7293">
        <ele>49.5</ele>
        <time>2022-03-14T15:44:23Z</time>
      </trkpt>
      <trkpt lat="49.40332" lon="-1.72929">
        <ele>50.1</ele>
        <time>2022-03-14T15:44:27Z</time>
      </trkpt>
      <trkpt lat="49.40337" lon="-1.72927">
        <ele>50.7</ele>
        <time>2022-03-14T15:44:30Z</time>
      </trkpt>
      <trkpt lat="49.40342" lon="-1.72928">
        <ele>51.4</ele>
        <time>2022-03-14T15:44:36Z</time>
      </trkpt>
      <trkpt lat="49.40347" lon="-1.72926">
        <ele>52.1</ele>
        <time>2022-03-14T15:44:41Z</time>
      </trkpt>
      <trkpt lat="49.40353" lon="-1.72925">
        <ele>52.6</ele>
        <time>2022-03-14T15:44:45Z</time>
      </trkpt>
      <trkpt lat="49.40358" lon="-1.72924">
        <ele>53.2</ele>
        <time>2022-03-14T15:44:49Z</time>
      </trkpt>
      <trkpt lat="49.40362" lon="-1.72926">
        <ele>53.6</ele>
        <time>2022-03-14T15:44:53Z</time>
      </trkpt>
      <trkpt lat="49.40367" lon="-1.72926">
        <ele>53.9</ele>
        <time>2022-03-14T15:44:57Z</time>
      </trkpt>
      <trkpt lat="49.40372" lon="-1.72924">
        <ele>52.1</ele>
        <time>2022-03-14T15:46:26Z</time>
      </trkpt>
      <trkpt lat="49.40378" lon="-1.72922">
        <ele>52.4</ele>
        <time>2022-03-14T15:46:31Z</time>
      </trkpt>
      <trkpt lat="49.40383" lon="-1.72925">
        <ele>52.4</ele>
        <time>2022-03-14T15:46:36Z</time>
      </trkpt>
      <trkpt lat="49.4047" lon="-1.729">
        <ele>60.5</ele>
        <time>2022-03-14T15:49:54Z</time>
      </trkpt>
      <trkpt lat="49.40485" lon="-1.72895">
        <ele>62.3</ele>
        <time>2022-03-14T15:49:54Z</time>
      </trkpt>
      <trkpt lat="49.40503" lon="-1.7289">
        <ele>64.5</ele>
        <time>2022-03-14T15:49:55Z</time>
      </trkpt>
      <trkpt lat="49.4051" lon="-1.72888">
        <ele>66.2</ele>
        <time>2022-03-14T15:49:57Z</time>
      </trkpt>
      <trkpt lat="49.40515" lon="-1.72886">
        <ele>77</ele>
        <time>2022-03-14T15:50:05Z</time>
      </trkpt>
      <trkpt lat="49.4052" lon="-1.72884">
        <ele>76.7</ele>
        <time>2022-03-14T15:50:08Z</time>
      </trkpt>
      <trkpt lat="49.40525" lon="-1.72882">
        <ele>76.7</ele>
        <time>2022-03-14T15:50:11Z</time>
      </trkpt>
      <trkpt lat="49.4053" lon="-1.7288">
        <ele>76.9</ele>
        <time>2022-03-14T15:50:15Z</time>
      </trkpt>
      <trkpt lat="49.40536" lon="-1.72877">
        <ele>77.1</ele>
        <time>2022-03-14T15:50:19Z</time>
      </trkpt>
      <trkpt lat="49.40541" lon="-1.72877">
        <ele>77.4</ele>
        <time>2022-03-14T15:50:22Z</time>
      </trkpt>
      <trkpt lat="49.40546" lon="-1.72874">
        <ele>77.4</ele>
        <time>2022-03-14T15:50:26Z</time>
      </trkpt>
      <trkpt lat="49.4055" lon="-1.72871">
        <ele>77.3</ele>
        <time>2022-03-14T15:50:30Z</time>
      </trkpt>
      <trkpt lat="49.40556" lon="-1.72868">
        <ele>77.2</ele>
        <time>2022-03-14T15:50:34Z</time>
      </trkpt>
      <trkpt lat="49.40562" lon="-1.72865">
        <ele>77.6</ele>
        <time>2022-03-14T15:50:38Z</time>
      </trkpt>
      <trkpt lat="49.40566" lon="-1.72861">
        <ele>78.1</ele>
        <time>2022-03-14T15:50:41Z</time>
      </trkpt>
      <trkpt lat="49.40571" lon="-1.72859">
        <ele>79</ele>
        <time>2022-03-14T15:50:44Z</time>
      </trkpt>
      <trkpt lat="49.40575" lon="-1.72856">
        <ele>79.7</ele>
        <time>2022-03-14T15:50:49Z</time>
      </trkpt>
      <trkpt lat="49.40579" lon="-1.72851">
        <ele>79.8</ele>
        <time>2022-03-14T15:50:53Z</time>
      </trkpt>
      <trkpt lat="49.40581" lon="-1.72846">
        <ele>79.6</ele>
        <time>2022-03-14T15:50:56Z</time>
      </trkpt>
      <trkpt lat="49.40585" lon="-1.72841">
        <ele>79.5</ele>
        <time>2022-03-14T15:51:01Z</time>
      </trkpt>
      <trkpt lat="49.40588" lon="-1.72836">
        <ele>79.6</ele>
        <time>2022-03-14T15:51:05Z</time>
      </trkpt>
      <trkpt lat="49.4059" lon="-1.72828">
        <ele>79.8</ele>
        <time>2022-03-14T15:51:08Z</time>
      </trkpt>
      <trkpt lat="49.40593" lon="-1.72822">
        <ele>80.2</ele>
        <time>2022-03-14T15:51:12Z</time>
      </trkpt>
      <trkpt lat="49.40595" lon="-1.72815">
        <ele>80.4</ele>
        <time>2022-03-14T15:51:16Z</time>
      </trkpt>
      <trkpt lat="49.40597" lon="-1.72808">
        <ele>80.9</ele>
        <time>2022-03-14T15:51:21Z</time>
      </trkpt>
      <trkpt lat="49.40599" lon="-1.72801">
        <ele>81.4</ele>
        <time>2022-03-14T15:51:25Z</time>
      </trkpt>
      <trkpt lat="49.40602" lon="-1.72794">
        <ele>81.9</ele>
        <time>2022-03-14T15:51:29Z</time>
      </trkpt>
      <trkpt lat="49.40603" lon="-1.72785">
        <ele>82.3</ele>
        <time>2022-03-14T15:51:34Z</time>
      </trkpt>
      <trkpt lat="49.40605" lon="-1.72776">
        <ele>82.5</ele>
        <time>2022-03-14T15:51:39Z</time>
      </trkpt>
      <trkpt lat="49.40607" lon="-1.7277">
        <ele>82.8</ele>
        <time>2022-03-14T15:51:44Z</time>
      </trkpt>
      <trkpt lat="49.40608" lon="-1.72762">
        <ele>83.1</ele>
        <time>2022-03-14T15:51:50Z</time>
      </trkpt>
      <trkpt lat="49.40612" lon="-1.72757">
        <ele>83.1</ele>
        <time>2022-03-14T15:51:54Z</time>
      </trkpt>
      <trkpt lat="49.40614" lon="-1.72751">
        <ele>83.1</ele>
        <time>2022-03-14T15:51:59Z</time>
      </trkpt>
      <trkpt lat="49.40617" lon="-1.72744">
        <ele>83.5</ele>
        <time>2022-03-14T15:52:03Z</time>
      </trkpt>
      <trkpt lat="49.40618" lon="-1.72737">
        <ele>83.9</ele>
        <time>2022-03-14T15:52:08Z</time>
      </trkpt>
      <trkpt lat="49.40619" lon="-1.7273">
        <ele>84</ele>
        <time>2022-03-14T15:52:11Z</time>
      </trkpt>
      <trkpt lat="49.40622" lon="-1.72723">
        <ele>84</ele>
        <time>2022-03-14T15:52:17Z</time>
      </trkpt>
      <trkpt lat="49.40626" lon="-1.72717">
        <ele>84</ele>
        <time>2022-03-14T15:52:21Z</time>
      </trkpt>
      <trkpt lat="49.40628" lon="-1.72709">
        <ele>84.3</ele>
        <time>2022-03-14T15:52:24Z</time>
      </trkpt>
      <trkpt lat="49.40631" lon="-1.72703">
        <ele>84.9</ele>
        <time>2022-03-14T15:52:28Z</time>
      </trkpt>
      <trkpt lat="49.40632" lon="-1.72695">
        <ele>85.5</ele>
        <time>2022-03-14T15:52:31Z</time>
      </trkpt>
      <trkpt lat="49.40634" lon="-1.72686">
        <ele>86.1</ele>
        <time>2022-03-14T15:52:36Z</time>
      </trkpt>
      <trkpt lat="49.40638" lon="-1.72684">
        <ele>86.5</ele>
        <time>2022-03-14T15:52:39Z</time>
      </trkpt>
      <trkpt lat="49.4064" lon="-1.72677">
        <ele>86.8</ele>
        <time>2022-03-14T15:52:44Z</time>
      </trkpt>
      <trkpt lat="49.40641" lon="-1.72669">
        <ele>87</ele>
        <time>2022-03-14T15:52:49Z</time>
      </trkpt>
      <trkpt lat="49.40644" lon="-1.72663">
        <ele>87.3</ele>
        <time>2022-03-14T15:52:53Z</time>
      </trkpt>
      <trkpt lat="49.40645" lon="-1.72656">
        <ele>87.4</ele>
        <time>2022-03-14T15:52:56Z</time>
      </trkpt>
      <trkpt lat="49.40648" lon="-1.72649">
        <ele>87.5</ele>
        <time>2022-03-14T15:53:00Z</time>
      </trkpt>
      <trkpt lat="49.4065" lon="-1.72642">
        <ele>87.7</ele>
        <time>2022-03-14T15:53:03Z</time>
      </trkpt>
      <trkpt lat="49.40652" lon="-1.72633">
        <ele>88</ele>
        <time>2022-03-14T15:53:08Z</time>
      </trkpt>
      <trkpt lat="49.40654" lon="-1.72624">
        <ele>88.3</ele>
        <time>2022-03-14T15:53:12Z</time>
      </trkpt>
      <trkpt lat="49.40658" lon="-1.72619">
        <ele>88.7</ele>
        <time>2022-03-14T15:53:16Z</time>
      </trkpt>
      <trkpt lat="49.40661" lon="-1.72611">
        <ele>89.3</ele>
        <time>2022-03-14T15:53:20Z</time>
      </trkpt>
      <trkpt lat="49.40665" lon="-1.72607">
        <ele>90</ele>
        <time>2022-03-14T15:53:25Z</time>
      </trkpt>
      <trkpt lat="49.4067" lon="-1.72604">
        <ele>90.4</ele>
        <time>2022-03-14T15:53:28Z</time>
      </trkpt>
      <trkpt lat="49.40675" lon="-1.72603">
        <ele>90.8</ele>
        <time>2022-03-14T15:53:32Z</time>
      </trkpt>
      <trkpt lat="49.4068" lon="-1.726">
        <ele>91.1</ele>
        <time>2022-03-14T15:53:37Z</time>
      </trkpt>
      <trkpt lat="49.40686" lon="-1.726">
        <ele>91.7</ele>
        <time>2022-03-14T15:53:41Z</time>
      </trkpt>
      <trkpt lat="49.4069" lon="-1.72598">
        <ele>92.5</ele>
        <time>2022-03-14T15:53:45Z</time>
      </trkpt>
      <trkpt lat="49.40695" lon="-1.72595">
        <ele>92.9</ele>
        <time>2022-03-14T15:53:50Z</time>
      </trkpt>
      <trkpt lat="49.407" lon="-1.72592">
        <ele>93.3</ele>
        <time>2022-03-14T15:53:54Z</time>
      </trkpt>
      <trkpt lat="49.40705" lon="-1.7259">
        <ele>93.6</ele>
        <time>2022-03-14T15:53:57Z</time>
      </trkpt>
      <trkpt lat="49.40711" lon="-1.7259">
        <ele>94.2</ele>
        <time>2022-03-14T15:54:02Z</time>
      </trkpt>
      <trkpt lat="49.40715" lon="-1.72585">
        <ele>94.8</ele>
        <time>2022-03-14T15:54:06Z</time>
      </trkpt>
      <trkpt lat="49.40719" lon="-1.72583">
        <ele>95.4</ele>
        <time>2022-03-14T15:54:10Z</time>
      </trkpt>
      <trkpt lat="49.40725" lon="-1.72581">
        <ele>96.1</ele>
        <time>2022-03-14T15:54:13Z</time>
      </trkpt>
      <trkpt lat="49.4073" lon="-1.7258">
        <ele>96.8</ele>
        <time>2022-03-14T15:54:17Z</time>
      </trkpt>
      <trkpt lat="49.40734" lon="-1.72577">
        <ele>97.7</ele>
        <time>2022-03-14T15:54:22Z</time>
      </trkpt>
      <trkpt lat="49.4074" lon="-1.72573">
        <ele>98.1</ele>
        <time>2022-03-14T15:54:26Z</time>
      </trkpt>
      <trkpt lat="49.40744" lon="-1.7257">
        <ele>98.4</ele>
        <time>2022-03-14T15:54:29Z</time>
      </trkpt>
      <trkpt lat="49.40748" lon="-1.72568">
        <ele>98.7</ele>
        <time>2022-03-14T15:54:33Z</time>
      </trkpt>
      <trkpt lat="49.40753" lon="-1.72561">
        <ele>99.1</ele>
        <time>2022-03-14T15:54:37Z</time>
      </trkpt>
      <trkpt lat="49.40758" lon="-1.72557">
        <ele>99.1</ele>
        <time>2022-03-14T15:54:42Z</time>
      </trkpt>
      <trkpt lat="49.40763" lon="-1.72555">
        <ele>99.1</ele>
        <time>2022-03-14T15:54:45Z</time>
      </trkpt>
      <trkpt lat="49.40768" lon="-1.72556">
        <ele>98.9</ele>
        <time>2022-03-14T15:54:48Z</time>
      </trkpt>
      <trkpt lat="49.40771" lon="-1.7255">
        <ele>98.8</ele>
        <time>2022-03-14T15:54:57Z</time>
      </trkpt>
      <trkpt lat="49.40776" lon="-1.72546">
        <ele>98.6</ele>
        <time>2022-03-14T15:55:02Z</time>
      </trkpt>
      <trkpt lat="49.40779" lon="-1.72539">
        <ele>98.2</ele>
        <time>2022-03-14T15:55:07Z</time>
      </trkpt>
      <trkpt lat="49.40777" lon="-1.72531">
        <ele>98.1</ele>
        <time>2022-03-14T15:55:11Z</time>
      </trkpt>
      <trkpt lat="49.40775" lon="-1.72522">
        <ele>98.3</ele>
        <time>2022-03-14T15:55:16Z</time>
      </trkpt>
      <trkpt lat="49.40772" lon="-1.72516">
        <ele>98.7</ele>
        <time>2022-03-14T15:55:23Z</time>
      </trkpt>
      <trkpt lat="49.40769" lon="-1.7251">
        <ele>99.2</ele>
        <time>2022-03-14T15:55:27Z</time>
      </trkpt>
      <trkpt lat="49.40765" lon="-1.72504">
        <ele>99.7</ele>
        <time>2022-03-14T15:55:32Z</time>
      </trkpt>
      <trkpt lat="49.4076" lon="-1.72498">
        <ele>100</ele>
        <time>2022-03-14T15:55:37Z</time>
      </trkpt>
      <trkpt lat="49.40756" lon="-1.72491">
        <ele>100.7</ele>
        <time>2022-03-14T15:55:41Z</time>
      </trkpt>
      <trkpt lat="49.40752" lon="-1.72487">
        <ele>101.5</ele>
        <time>2022-03-14T15:55:46Z</time>
      </trkpt>
      <trkpt lat="49.40748" lon="-1.72483">
        <ele>101.8</ele>
        <time>2022-03-14T15:55:49Z</time>
      </trkpt>
      <trkpt lat="49.40745" lon="-1.72478">
        <ele>101.9</ele>
        <time>2022-03-14T15:55:52Z</time>
      </trkpt>
      <trkpt lat="49.4074" lon="-1.72471">
        <ele>102.1</ele>
        <time>2022-03-14T15:55:57Z</time>
      </trkpt>
      <trkpt lat="49.40735" lon="-1.72465">
        <ele>102.4</ele>
        <time>2022-03-14T15:56:01Z</time>
      </trkpt>
      <trkpt lat="49.40732" lon="-1.7246">
        <ele>102.5</ele>
        <time>2022-03-14T15:56:05Z</time>
      </trkpt>
      <trkpt lat="49.40727" lon="-1.72455">
        <ele>102.7</ele>
        <time>2022-03-14T15:56:10Z</time>
      </trkpt>
      <trkpt lat="49.40723" lon="-1.7245">
        <ele>102.7</ele>
        <time>2022-03-14T15:56:13Z</time>
      </trkpt>
      <trkpt lat="49.4072" lon="-1.72445">
        <ele>102.9</ele>
        <time>2022-03-14T15:56:16Z</time>
      </trkpt>
      <trkpt lat="49.40717" lon="-1.72439">
        <ele>103.1</ele>
        <time>2022-03-14T15:56:22Z</time>
      </trkpt>
      <trkpt lat="49.40713" lon="-1.72433">
        <ele>103.4</ele>
        <time>2022-03-14T15:56:26Z</time>
      </trkpt>
      <trkpt lat="49.4071" lon="-1.72426">
        <ele>103.7</ele>
        <time>2022-03-14T15:56:31Z</time>
      </trkpt>
      <trkpt lat="49.40714" lon="-1.72417">
        <ele>104.7</ele>
        <time>2022-03-14T15:56:41Z</time>
      </trkpt>
      <trkpt lat="49.40716" lon="-1.72409">
        <ele>105</ele>
        <time>2022-03-14T15:56:46Z</time>
      </trkpt>
      <trkpt lat="49.40717" lon="-1.72401">
        <ele>105.3</ele>
        <time>2022-03-14T15:56:50Z</time>
      </trkpt>
      <trkpt lat="49.4072" lon="-1.72394">
        <ele>105.9</ele>
        <time>2022-03-14T15:56:58Z</time>
      </trkpt>
      <trkpt lat="49.40723" lon="-1.72387">
        <ele>106.3</ele>
        <time>2022-03-14T15:57:02Z</time>
      </trkpt>
      <trkpt lat="49.40729" lon="-1.72383">
        <ele>106.4</ele>
        <time>2022-03-14T15:57:06Z</time>
      </trkpt>
      <trkpt lat="49.40731" lon="-1.72374">
        <ele>106.7</ele>
        <time>2022-03-14T15:57:10Z</time>
      </trkpt>
      <trkpt lat="49.40734" lon="-1.72365">
        <ele>107</ele>
        <time>2022-03-14T15:57:13Z</time>
      </trkpt>
      <trkpt lat="49.40738" lon="-1.72356">
        <ele>107.8</ele>
        <time>2022-03-14T15:57:18Z</time>
      </trkpt>
      <trkpt lat="49.40743" lon="-1.72357">
        <ele>108.9</ele>
        <time>2022-03-14T15:57:24Z</time>
      </trkpt>
      <trkpt lat="49.4074" lon="-1.72351">
        <ele>109.6</ele>
        <time>2022-03-14T15:57:35Z</time>
      </trkpt>
      <trkpt lat="49.4074" lon="-1.72342">
        <ele>109.7</ele>
        <time>2022-03-14T15:57:46Z</time>
      </trkpt>
      <trkpt lat="49.40741" lon="-1.72334">
        <ele>110.3</ele>
        <time>2022-03-14T15:57:49Z</time>
      </trkpt>
      <trkpt lat="49.40744" lon="-1.72326">
        <ele>110.9</ele>
        <time>2022-03-14T15:57:53Z</time>
      </trkpt>
      <trkpt lat="49.40746" lon="-1.72318">
        <ele>111.5</ele>
        <time>2022-03-14T15:57:56Z</time>
      </trkpt>
      <trkpt lat="49.40749" lon="-1.7231">
        <ele>111.6</ele>
        <time>2022-03-14T15:58:01Z</time>
      </trkpt>
      <trkpt lat="49.40751" lon="-1.72304">
        <ele>111.8</ele>
        <time>2022-03-14T15:58:03Z</time>
      </trkpt>
      <trkpt lat="49.40755" lon="-1.72297">
        <ele>112.5</ele>
        <time>2022-03-14T15:58:07Z</time>
      </trkpt>
      <trkpt lat="49.40757" lon="-1.72289">
        <ele>113.2</ele>
        <time>2022-03-14T15:58:12Z</time>
      </trkpt>
      <trkpt lat="49.40759" lon="-1.72283">
        <ele>113.8</ele>
        <time>2022-03-14T15:58:16Z</time>
      </trkpt>
      <trkpt lat="49.4076" lon="-1.72276">
        <ele>114.2</ele>
        <time>2022-03-14T15:58:19Z</time>
      </trkpt>
      <trkpt lat="49.40761" lon="-1.72268">
        <ele>114.4</ele>
        <time>2022-03-14T15:58:23Z</time>
      </trkpt>
      <trkpt lat="49.40761" lon="-1.7226">
        <ele>114.6</ele>
        <time>2022-03-14T15:58:29Z</time>
      </trkpt>
      <trkpt lat="49.40765" lon="-1.72253">
        <ele>114.8</ele>
        <time>2022-03-14T15:58:34Z</time>
      </trkpt>
      <trkpt lat="49.40768" lon="-1.72245">
        <ele>114.9</ele>
        <time>2022-03-14T15:58:39Z</time>
      </trkpt>
      <trkpt lat="49.40772" lon="-1.72238">
        <ele>115</ele>
        <time>2022-03-14T15:58:43Z</time>
      </trkpt>
      <trkpt lat="49.40774" lon="-1.72232">
        <ele>115.2</ele>
        <time>2022-03-14T15:58:48Z</time>
      </trkpt>
      <trkpt lat="49.40777" lon="-1.72224">
        <ele>115.4</ele>
        <time>2022-03-14T15:58:52Z</time>
      </trkpt>
      <trkpt lat="49.40779" lon="-1.72215">
        <ele>115.7</ele>
        <time>2022-03-14T15:58:57Z</time>
      </trkpt>
      <trkpt lat="49.4078" lon="-1.72207">
        <ele>116</ele>
        <time>2022-03-14T15:59:02Z</time>
      </trkpt>
      <trkpt lat="49.40781" lon="-1.72199">
        <ele>116.3</ele>
        <time>2022-03-14T15:59:08Z</time>
      </trkpt>
      <trkpt lat="49.40781" lon="-1.7219">
        <ele>116.7</ele>
        <time>2022-03-14T15:59:13Z</time>
      </trkpt>
      <trkpt lat="49.40782" lon="-1.72182">
        <ele>117.1</ele>
        <time>2022-03-14T15:59:17Z</time>
      </trkpt>
      <trkpt lat="49.40784" lon="-1.72174">
        <ele>117.4</ele>
        <time>2022-03-14T15:59:23Z</time>
      </trkpt>
      <trkpt lat="49.40785" lon="-1.72165">
        <ele>117.6</ele>
        <time>2022-03-14T15:59:28Z</time>
      </trkpt>
      <trkpt lat="49.40786" lon="-1.72158">
        <ele>117.8</ele>
        <time>2022-03-14T15:59:31Z</time>
      </trkpt>
      <trkpt lat="49.40787" lon="-1.7215">
        <ele>117.9</ele>
        <time>2022-03-14T15:59:36Z</time>
      </trkpt>
      <trkpt lat="49.40789" lon="-1.72143">
        <ele>118.1</ele>
        <time>2022-03-14T15:59:40Z</time>
      </trkpt>
      <trkpt lat="49.40791" lon="-1.72135">
        <ele>118.3</ele>
        <time>2022-03-14T15:59:45Z</time>
      </trkpt>
      <trkpt lat="49.40792" lon="-1.72128">
        <ele>118.5</ele>
        <time>2022-03-14T15:59:49Z</time>
      </trkpt>
      <trkpt lat="49.40794" lon="-1.7212">
        <ele>118.4</ele>
        <time>2022-03-14T15:59:54Z</time>
      </trkpt>
      <trkpt lat="49.40794" lon="-1.72113">
        <ele>118.4</ele>
        <time>2022-03-14T16:00:02Z</time>
      </trkpt>
      <trkpt lat="49.40794" lon="-1.72103">
        <ele>118.6</ele>
        <time>2022-03-14T16:00:06Z</time>
      </trkpt>
      <trkpt lat="49.40794" lon="-1.72093">
        <ele>118.9</ele>
        <time>2022-03-14T16:00:09Z</time>
      </trkpt>
      <trkpt lat="49.40797" lon="-1.72085">
        <ele>119.1</ele>
        <time>2022-03-14T16:00:13Z</time>
      </trkpt>
      <trkpt lat="49.40799" lon="-1.72077">
        <ele>119.4</ele>
        <time>2022-03-14T16:00:16Z</time>
      </trkpt>
      <trkpt lat="49.40801" lon="-1.72068">
        <ele>119.5</ele>
        <time>2022-03-14T16:00:20Z</time>
      </trkpt>
      <trkpt lat="49.40803" lon="-1.72058">
        <ele>119.9</ele>
        <time>2022-03-14T16:00:25Z</time>
      </trkpt>
      <trkpt lat="49.40805" lon="-1.72049">
        <ele>120</ele>
        <time>2022-03-14T16:00:30Z</time>
      </trkpt>
      <trkpt lat="49.40803" lon="-1.72042">
        <ele>119.6</ele>
        <time>2022-03-14T16:00:40Z</time>
      </trkpt>
      <trkpt lat="49.40804" lon="-1.72035">
        <ele>119.7</ele>
        <time>2022-03-14T16:00:43Z</time>
      </trkpt>
      <trkpt lat="49.40806" lon="-1.72028">
        <ele>119.7</ele>
        <time>2022-03-14T16:00:46Z</time>
      </trkpt>
      <trkpt lat="49.40807" lon="-1.7202">
        <ele>119.8</ele>
        <time>2022-03-14T16:00:50Z</time>
      </trkpt>
      <trkpt lat="49.40808" lon="-1.72013">
        <ele>119.9</ele>
        <time>2022-03-14T16:00:54Z</time>
      </trkpt>
      <trkpt lat="49.4081" lon="-1.72005">
        <ele>120.1</ele>
        <time>2022-03-14T16:00:58Z</time>
      </trkpt>
      <trkpt lat="49.40811" lon="-1.71996">
        <ele>120.3</ele>
        <time>2022-03-14T16:01:02Z</time>
      </trkpt>
      <trkpt lat="49.40812" lon="-1.71989">
        <ele>120.1</ele>
        <time>2022-03-14T16:01:06Z</time>
      </trkpt>
      <trkpt lat="49.40814" lon="-1.7198">
        <ele>119.9</ele>
        <time>2022-03-14T16:01:10Z</time>
      </trkpt>
      <trkpt lat="49.40815" lon="-1.71972">
        <ele>119.7</ele>
        <time>2022-03-14T16:01:13Z</time>
      </trkpt>
      <trkpt lat="49.40816" lon="-1.71963">
        <ele>119.5</ele>
        <time>2022-03-14T16:01:17Z</time>
      </trkpt>
      <trkpt lat="49.40818" lon="-1.71954">
        <ele>119.3</ele>
        <time>2022-03-14T16:01:22Z</time>
      </trkpt>
      <trkpt lat="49.4082" lon="-1.71946">
        <ele>119.1</ele>
        <time>2022-03-14T16:01:27Z</time>
      </trkpt>
      <trkpt lat="49.40822" lon="-1.71939">
        <ele>119.1</ele>
        <time>2022-03-14T16:01:32Z</time>
      </trkpt>
      <trkpt lat="49.40823" lon="-1.71931">
        <ele>119.2</ele>
        <time>2022-03-14T16:01:38Z</time>
      </trkpt>
      <trkpt lat="49.40824" lon="-1.71924">
        <ele>119.4</ele>
        <time>2022-03-14T16:01:43Z</time>
      </trkpt>
      <trkpt lat="49.40825" lon="-1.71916">
        <ele>119.5</ele>
        <time>2022-03-14T16:01:48Z</time>
      </trkpt>
      <trkpt lat="49.40825" lon="-1.71907">
        <ele>119.8</ele>
        <time>2022-03-14T16:01:52Z</time>
      </trkpt>
      <trkpt lat="49.40825" lon="-1.71899">
        <ele>120.3</ele>
        <time>2022-03-14T16:01:56Z</time>
      </trkpt>
      <trkpt lat="49.40826" lon="-1.7189">
        <ele>121.1</ele>
        <time>2022-03-14T16:01:59Z</time>
      </trkpt>
      <trkpt lat="49.40829" lon="-1.71883">
        <ele>121.4</ele>
        <time>2022-03-14T16:02:03Z</time>
      </trkpt>
      <trkpt lat="49.40831" lon="-1.71877">
        <ele>121.6</ele>
        <time>2022-03-14T16:02:05Z</time>
      </trkpt>
      <trkpt lat="49.40831" lon="-1.7187">
        <ele>121.8</ele>
        <time>2022-03-14T16:02:09Z</time>
      </trkpt>
      <trkpt lat="49.40831" lon="-1.71863">
        <ele>122</ele>
        <time>2022-03-14T16:02:12Z</time>
      </trkpt>
      <trkpt lat="49.40833" lon="-1.71855">
        <ele>122.1</ele>
        <time>2022-03-14T16:02:17Z</time>
      </trkpt>
      <trkpt lat="49.40832" lon="-1.71847">
        <ele>122.2</ele>
        <time>2022-03-14T16:02:20Z</time>
      </trkpt>
      <trkpt lat="49.40832" lon="-1.7184">
        <ele>122.2</ele>
        <time>2022-03-14T16:02:23Z</time>
      </trkpt>
      <trkpt lat="49.40831" lon="-1.71832">
        <ele>122.2</ele>
        <time>2022-03-14T16:02:28Z</time>
      </trkpt>
      <trkpt lat="49.40834" lon="-1.71826">
        <ele>122.1</ele>
        <time>2022-03-14T16:02:34Z</time>
      </trkpt>
      <trkpt lat="49.40837" lon="-1.7182">
        <ele>122.1</ele>
        <time>2022-03-14T16:02:50Z</time>
      </trkpt>
      <trkpt lat="49.40839" lon="-1.71812">
        <ele>122.1</ele>
        <time>2022-03-14T16:02:54Z</time>
      </trkpt>
      <trkpt lat="49.4084" lon="-1.71805">
        <ele>122.2</ele>
        <time>2022-03-14T16:02:57Z</time>
      </trkpt>
      <trkpt lat="49.40842" lon="-1.71797">
        <ele>122.2</ele>
        <time>2022-03-14T16:03:01Z</time>
      </trkpt>
      <trkpt lat="49.40843" lon="-1.7179">
        <ele>122.4</ele>
        <time>2022-03-14T16:03:04Z</time>
      </trkpt>
      <trkpt lat="49.40843" lon="-1.71783">
        <ele>122.5</ele>
        <time>2022-03-14T16:03:08Z</time>
      </trkpt>
      <trkpt lat="49.40843" lon="-1.71775">
        <ele>122.5</ele>
        <time>2022-03-14T16:03:11Z</time>
      </trkpt>
      <trkpt lat="49.40845" lon="-1.71768">
        <ele>122.2</ele>
        <time>2022-03-14T16:03:14Z</time>
      </trkpt>
      <trkpt lat="49.40847" lon="-1.71761">
        <ele>122</ele>
        <time>2022-03-14T16:03:19Z</time>
      </trkpt>
      <trkpt lat="49.40846" lon="-1.71752">
        <ele>122</ele>
        <time>2022-03-14T16:03:23Z</time>
      </trkpt>
      <trkpt lat="49.40848" lon="-1.71743">
        <ele>122</ele>
        <time>2022-03-14T16:03:27Z</time>
      </trkpt>
      <trkpt lat="49.40848" lon="-1.71736">
        <ele>122.4</ele>
        <time>2022-03-14T16:03:32Z</time>
      </trkpt>
      <trkpt lat="49.4085" lon="-1.71729">
        <ele>122.8</ele>
        <time>2022-03-14T16:03:37Z</time>
      </trkpt>
      <trkpt lat="49.40852" lon="-1.71719">
        <ele>123.1</ele>
        <time>2022-03-14T16:03:42Z</time>
      </trkpt>
      <trkpt lat="49.40853" lon="-1.71712">
        <ele>123.1</ele>
        <time>2022-03-14T16:03:45Z</time>
      </trkpt>
      <trkpt lat="49.40853" lon="-1.71703">
        <ele>123</ele>
        <time>2022-03-14T16:03:49Z</time>
      </trkpt>
      <trkpt lat="49.40855" lon="-1.71695">
        <ele>122.4</ele>
        <time>2022-03-14T16:03:54Z</time>
      </trkpt>
      <trkpt lat="49.40856" lon="-1.71688">
        <ele>121.6</ele>
        <time>2022-03-14T16:04:05Z</time>
      </trkpt>
      <trkpt lat="49.40853" lon="-1.7168">
        <ele>121.6</ele>
        <time>2022-03-14T16:04:11Z</time>
      </trkpt>
      <trkpt lat="49.4085" lon="-1.71671">
        <ele>121.6</ele>
        <time>2022-03-14T16:04:17Z</time>
      </trkpt>
      <trkpt lat="49.40845" lon="-1.71665">
        <ele>121.3</ele>
        <time>2022-03-14T16:04:21Z</time>
      </trkpt>
      <trkpt lat="49.40841" lon="-1.71662">
        <ele>121</ele>
        <time>2022-03-14T16:04:31Z</time>
      </trkpt>
      <trkpt lat="49.40836" lon="-1.71661">
        <ele>121.1</ele>
        <time>2022-03-14T16:04:34Z</time>
      </trkpt>
      <trkpt lat="49.40831" lon="-1.71658">
        <ele>121.3</ele>
        <time>2022-03-14T16:04:39Z</time>
      </trkpt>
      <trkpt lat="49.40826" lon="-1.71658">
        <ele>121.5</ele>
        <time>2022-03-14T16:04:45Z</time>
      </trkpt>
      <trkpt lat="49.40821" lon="-1.71661">
        <ele>121.3</ele>
        <time>2022-03-14T16:04:51Z</time>
      </trkpt>
      <trkpt lat="49.40815" lon="-1.71657">
        <ele>121.1</ele>
        <time>2022-03-14T16:04:55Z</time>
      </trkpt>
      <trkpt lat="49.4081" lon="-1.71651">
        <ele>120.8</ele>
        <time>2022-03-14T16:04:58Z</time>
      </trkpt>
      <trkpt lat="49.40806" lon="-1.71645">
        <ele>120.7</ele>
        <time>2022-03-14T16:05:02Z</time>
      </trkpt>
      <trkpt lat="49.40801" lon="-1.7164">
        <ele>120.5</ele>
        <time>2022-03-14T16:05:06Z</time>
      </trkpt>
      <trkpt lat="49.40797" lon="-1.71636">
        <ele>120.5</ele>
        <time>2022-03-14T16:05:09Z</time>
      </trkpt>
      <trkpt lat="49.40792" lon="-1.71635">
        <ele>120.5</ele>
        <time>2022-03-14T16:05:13Z</time>
      </trkpt>
      <trkpt lat="49.40787" lon="-1.71634">
        <ele>120.5</ele>
        <time>2022-03-14T16:05:16Z</time>
      </trkpt>
      <trkpt lat="49.40782" lon="-1.7163">
        <ele>120.2</ele>
        <time>2022-03-14T16:05:20Z</time>
      </trkpt>
      <trkpt lat="49.40778" lon="-1.71625">
        <ele>120</ele>
        <time>2022-03-14T16:05:25Z</time>
      </trkpt>
      <trkpt lat="49.40775" lon="-1.7162">
        <ele>119.8</ele>
        <time>2022-03-14T16:05:29Z</time>
      </trkpt>
      <trkpt lat="49.4077" lon="-1.71619">
        <ele>119.6</ele>
        <time>2022-03-14T16:05:33Z</time>
      </trkpt>
      <trkpt lat="49.40765" lon="-1.71619">
        <ele>119</ele>
        <time>2022-03-14T16:05:38Z</time>
      </trkpt>
      <trkpt lat="49.40761" lon="-1.71615">
        <ele>118.5</ele>
        <time>2022-03-14T16:05:43Z</time>
      </trkpt>
      <trkpt lat="49.40757" lon="-1.71611">
        <ele>118.3</ele>
        <time>2022-03-14T16:05:47Z</time>
      </trkpt>
      <trkpt lat="49.40753" lon="-1.71609">
        <ele>118.1</ele>
        <time>2022-03-14T16:05:51Z</time>
      </trkpt>
      <trkpt lat="49.40749" lon="-1.71605">
        <ele>118</ele>
        <time>2022-03-14T16:05:56Z</time>
      </trkpt>
      <trkpt lat="49.40744" lon="-1.71601">
        <ele>118</ele>
        <time>2022-03-14T16:06:00Z</time>
      </trkpt>
      <trkpt lat="49.40738" lon="-1.71598">
        <ele>118.1</ele>
        <time>2022-03-14T16:06:05Z</time>
      </trkpt>
      <trkpt lat="49.40733" lon="-1.71596">
        <ele>117.9</ele>
        <time>2022-03-14T16:06:09Z</time>
      </trkpt>
      <trkpt lat="49.40728" lon="-1.71593">
        <ele>117.7</ele>
        <time>2022-03-14T16:06:15Z</time>
      </trkpt>
      <trkpt lat="49.40722" lon="-1.7159">
        <ele>117.7</ele>
        <time>2022-03-14T16:06:19Z</time>
      </trkpt>
      <trkpt lat="49.40718" lon="-1.71587">
        <ele>117.8</ele>
        <time>2022-03-14T16:06:24Z</time>
      </trkpt>
      <trkpt lat="49.40713" lon="-1.71584">
        <ele>117.8</ele>
        <time>2022-03-14T16:06:30Z</time>
      </trkpt>
      <trkpt lat="49.40709" lon="-1.71581">
        <ele>117.7</ele>
        <time>2022-03-14T16:06:37Z</time>
      </trkpt>
      <trkpt lat="49.40704" lon="-1.71579">
        <ele>117.4</ele>
        <time>2022-03-14T16:06:41Z</time>
      </trkpt>
      <trkpt lat="49.407" lon="-1.71576">
        <ele>117.2</ele>
        <time>2022-03-14T16:06:45Z</time>
      </trkpt>
      <trkpt lat="49.40695" lon="-1.71573">
        <ele>117.1</ele>
        <time>2022-03-14T16:06:50Z</time>
      </trkpt>
      <trkpt lat="49.40691" lon="-1.71566">
        <ele>116.8</ele>
        <time>2022-03-14T16:06:54Z</time>
      </trkpt>
      <trkpt lat="49.40686" lon="-1.71562">
        <ele>116.5</ele>
        <time>2022-03-14T16:06:59Z</time>
      </trkpt>
      <trkpt lat="49.40679" lon="-1.7156">
        <ele>116.3</ele>
        <time>2022-03-14T16:07:04Z</time>
      </trkpt>
      <trkpt lat="49.40674" lon="-1.71555">
        <ele>116</ele>
        <time>2022-03-14T16:07:09Z</time>
      </trkpt>
      <trkpt lat="49.4067" lon="-1.71551">
        <ele>115.6</ele>
        <time>2022-03-14T16:07:13Z</time>
      </trkpt>
      <trkpt lat="49.40665" lon="-1.71547">
        <ele>115.3</ele>
        <time>2022-03-14T16:07:18Z</time>
      </trkpt>
      <trkpt lat="49.40663" lon="-1.7154">
        <ele>115.1</ele>
        <time>2022-03-14T16:07:23Z</time>
      </trkpt>
      <trkpt lat="49.40658" lon="-1.71544">
        <ele>115.3</ele>
        <time>2022-03-14T16:07:26Z</time>
      </trkpt>
      <trkpt lat="49.40653" lon="-1.71541">
        <ele>115.4</ele>
        <time>2022-03-14T16:07:29Z</time>
      </trkpt>
      <trkpt lat="49.40649" lon="-1.71538">
        <ele>115.4</ele>
        <time>2022-03-14T16:07:31Z</time>
      </trkpt>
      <trkpt lat="49.40643" lon="-1.71533">
        <ele>115.1</ele>
        <time>2022-03-14T16:07:36Z</time>
      </trkpt>
      <trkpt lat="49.40639" lon="-1.71531">
        <ele>114.7</ele>
        <time>2022-03-14T16:07:41Z</time>
      </trkpt>
      <trkpt lat="49.40634" lon="-1.7153">
        <ele>114.5</ele>
        <time>2022-03-14T16:07:44Z</time>
      </trkpt>
      <trkpt lat="49.40628" lon="-1.71531">
        <ele>114.4</ele>
        <time>2022-03-14T16:07:49Z</time>
      </trkpt>
      <trkpt lat="49.40623" lon="-1.71531">
        <ele>114.2</ele>
        <time>2022-03-14T16:07:54Z</time>
      </trkpt>
      <trkpt lat="49.40618" lon="-1.71531">
        <ele>113.9</ele>
        <time>2022-03-14T16:07:59Z</time>
      </trkpt>
      <trkpt lat="49.40613" lon="-1.71531">
        <ele>113.5</ele>
        <time>2022-03-14T16:08:04Z</time>
      </trkpt>
      <trkpt lat="49.40607" lon="-1.7153">
        <ele>112.8</ele>
        <time>2022-03-14T16:08:09Z</time>
      </trkpt>
      <trkpt lat="49.40602" lon="-1.7153">
        <ele>112.5</ele>
        <time>2022-03-14T16:08:13Z</time>
      </trkpt>
      <trkpt lat="49.40603" lon="-1.71523">
        <ele>112.6</ele>
        <time>2022-03-14T16:08:30Z</time>
      </trkpt>
      <trkpt lat="49.406" lon="-1.7153">
        <ele>113.5</ele>
        <time>2022-03-14T16:09:04Z</time>
      </trkpt>
      <trkpt lat="49.40596" lon="-1.71536">
        <ele>113.5</ele>
        <time>2022-03-14T16:09:06Z</time>
      </trkpt>
      <trkpt lat="49.40591" lon="-1.71536">
        <ele>113.4</ele>
        <time>2022-03-14T16:09:09Z</time>
      </trkpt>
      <trkpt lat="49.40586" lon="-1.71537">
        <ele>112.8</ele>
        <time>2022-03-14T16:09:14Z</time>
      </trkpt>
      <trkpt lat="49.40579" lon="-1.71537">
        <ele>111.7</ele>
        <time>2022-03-14T16:09:19Z</time>
      </trkpt>
      <trkpt lat="49.40574" lon="-1.71536">
        <ele>110.4</ele>
        <time>2022-03-14T16:09:23Z</time>
      </trkpt>
      <trkpt lat="49.40569" lon="-1.71535">
        <ele>109.4</ele>
        <time>2022-03-14T16:09:28Z</time>
      </trkpt>
      <trkpt lat="49.40564" lon="-1.7153">
        <ele>108.4</ele>
        <time>2022-03-14T16:09:32Z</time>
      </trkpt>
      <trkpt lat="49.40559" lon="-1.7153">
        <ele>107.6</ele>
        <time>2022-03-14T16:09:37Z</time>
      </trkpt>
      <trkpt lat="49.40554" lon="-1.71533">
        <ele>107.3</ele>
        <time>2022-03-14T16:09:39Z</time>
      </trkpt>
      <trkpt lat="49.4055" lon="-1.71538">
        <ele>107</ele>
        <time>2022-03-14T16:09:43Z</time>
      </trkpt>
      <trkpt lat="49.40545" lon="-1.71541">
        <ele>106.5</ele>
        <time>2022-03-14T16:09:46Z</time>
      </trkpt>
      <trkpt lat="49.4054" lon="-1.71542">
        <ele>105.9</ele>
        <time>2022-03-14T16:09:49Z</time>
      </trkpt>
      <trkpt lat="49.40535" lon="-1.71542">
        <ele>105.3</ele>
        <time>2022-03-14T16:09:53Z</time>
      </trkpt>
      <trkpt lat="49.4053" lon="-1.7154">
        <ele>104.2</ele>
        <time>2022-03-14T16:10:00Z</time>
      </trkpt>
      <trkpt lat="49.40524" lon="-1.7154">
        <ele>102.9</ele>
        <time>2022-03-14T16:10:04Z</time>
      </trkpt>
      <trkpt lat="49.40519" lon="-1.7154">
        <ele>101.7</ele>
        <time>2022-03-14T16:10:09Z</time>
      </trkpt>
      <trkpt lat="49.40514" lon="-1.71541">
        <ele>100.7</ele>
        <time>2022-03-14T16:10:12Z</time>
      </trkpt>
      <trkpt lat="49.40509" lon="-1.71544">
        <ele>99.7</ele>
        <time>2022-03-14T16:10:16Z</time>
      </trkpt>
      <trkpt lat="49.40504" lon="-1.71545">
        <ele>99</ele>
        <time>2022-03-14T16:10:19Z</time>
      </trkpt>
      <trkpt lat="49.40498" lon="-1.71545">
        <ele>98.6</ele>
        <time>2022-03-14T16:10:23Z</time>
      </trkpt>
      <trkpt lat="49.40493" lon="-1.71546">
        <ele>98.3</ele>
        <time>2022-03-14T16:10:28Z</time>
      </trkpt>
      <trkpt lat="49.40487" lon="-1.71545">
        <ele>98.3</ele>
        <time>2022-03-14T16:10:32Z</time>
      </trkpt>
      <trkpt lat="49.40483" lon="-1.71544">
        <ele>98.2</ele>
        <time>2022-03-14T16:10:36Z</time>
      </trkpt>
      <trkpt lat="49.40478" lon="-1.71544">
        <ele>97.8</ele>
        <time>2022-03-14T16:10:39Z</time>
      </trkpt>
      <trkpt lat="49.40473" lon="-1.71543">
        <ele>97.2</ele>
        <time>2022-03-14T16:10:44Z</time>
      </trkpt>
      <trkpt lat="49.40468" lon="-1.71542">
        <ele>96.4</ele>
        <time>2022-03-14T16:10:49Z</time>
      </trkpt>
      <trkpt lat="49.40461" lon="-1.7154">
        <ele>94.8</ele>
        <time>2022-03-14T16:10:55Z</time>
      </trkpt>
      <trkpt lat="49.40456" lon="-1.71541">
        <ele>93.1</ele>
        <time>2022-03-14T16:10:58Z</time>
      </trkpt>
      <trkpt lat="49.40452" lon="-1.71543">
        <ele>92.6</ele>
        <time>2022-03-14T16:11:03Z</time>
      </trkpt>
      <trkpt lat="49.40447" lon="-1.71541">
        <ele>92.5</ele>
        <time>2022-03-14T16:11:06Z</time>
      </trkpt>
      <trkpt lat="49.40441" lon="-1.71539">
        <ele>92.3</ele>
        <time>2022-03-14T16:11:09Z</time>
      </trkpt>
      <trkpt lat="49.40437" lon="-1.71536">
        <ele>91.9</ele>
        <time>2022-03-14T16:11:14Z</time>
      </trkpt>
      <trkpt lat="49.40432" lon="-1.71535">
        <ele>91.7</ele>
        <time>2022-03-14T16:11:18Z</time>
      </trkpt>
      <trkpt lat="49.40426" lon="-1.71533">
        <ele>91.3</ele>
        <time>2022-03-14T16:11:22Z</time>
      </trkpt>
      <trkpt lat="49.40422" lon="-1.71532">
        <ele>91.1</ele>
        <time>2022-03-14T16:11:26Z</time>
      </trkpt>
      <trkpt lat="49.40416" lon="-1.71531">
        <ele>90.8</ele>
        <time>2022-03-14T16:11:30Z</time>
      </trkpt>
      <trkpt lat="49.4041" lon="-1.71531">
        <ele>90.5</ele>
        <time>2022-03-14T16:11:35Z</time>
      </trkpt>
      <trkpt lat="49.40406" lon="-1.71529">
        <ele>90</ele>
        <time>2022-03-14T16:11:39Z</time>
      </trkpt>
      <trkpt lat="49.40401" lon="-1.71527">
        <ele>88.8</ele>
        <time>2022-03-14T16:11:44Z</time>
      </trkpt>
      <trkpt lat="49.40395" lon="-1.71527">
        <ele>87.9</ele>
        <time>2022-03-14T16:11:48Z</time>
      </trkpt>
      <trkpt lat="49.40391" lon="-1.71526">
        <ele>87.8</ele>
        <time>2022-03-14T16:11:52Z</time>
      </trkpt>
      <trkpt lat="49.40387" lon="-1.71522">
        <ele>87.5</ele>
        <time>2022-03-14T16:11:55Z</time>
      </trkpt>
      <trkpt lat="49.40381" lon="-1.71522">
        <ele>86.7</ele>
        <time>2022-03-14T16:12:02Z</time>
      </trkpt>
      <trkpt lat="49.40376" lon="-1.71524">
        <ele>86.2</ele>
        <time>2022-03-14T16:12:06Z</time>
      </trkpt>
      <trkpt lat="49.4037" lon="-1.71524">
        <ele>85.5</ele>
        <time>2022-03-14T16:12:09Z</time>
      </trkpt>
      <trkpt lat="49.40365" lon="-1.71525">
        <ele>84.5</ele>
        <time>2022-03-14T16:12:12Z</time>
      </trkpt>
      <trkpt lat="49.40359" lon="-1.71523">
        <ele>83.6</ele>
        <time>2022-03-14T16:12:16Z</time>
      </trkpt>
      <trkpt lat="49.40355" lon="-1.71523">
        <ele>82.8</ele>
        <time>2022-03-14T16:12:19Z</time>
      </trkpt>
      <trkpt lat="49.40349" lon="-1.71522">
        <ele>82.2</ele>
        <time>2022-03-14T16:12:24Z</time>
      </trkpt>
      <trkpt lat="49.40345" lon="-1.71522">
        <ele>81.9</ele>
        <time>2022-03-14T16:12:27Z</time>
      </trkpt>
      <trkpt lat="49.40337" lon="-1.71523">
        <ele>81.6</ele>
        <time>2022-03-14T16:12:31Z</time>
      </trkpt>
      <trkpt lat="49.40331" lon="-1.71524">
        <ele>81.1</ele>
        <time>2022-03-14T16:12:36Z</time>
      </trkpt>
      <trkpt lat="49.40326" lon="-1.71521">
        <ele>80.6</ele>
        <time>2022-03-14T16:12:41Z</time>
      </trkpt>
      <trkpt lat="49.40321" lon="-1.71518">
        <ele>80.3</ele>
        <time>2022-03-14T16:12:46Z</time>
      </trkpt>
      <trkpt lat="49.40315" lon="-1.71517">
        <ele>79.9</ele>
        <time>2022-03-14T16:12:50Z</time>
      </trkpt>
      <trkpt lat="49.4031" lon="-1.71518">
        <ele>79.5</ele>
        <time>2022-03-14T16:12:55Z</time>
      </trkpt>
      <trkpt lat="49.40304" lon="-1.71518">
        <ele>79</ele>
        <time>2022-03-14T16:13:01Z</time>
      </trkpt>
      <trkpt lat="49.403" lon="-1.71516">
        <ele>78.7</ele>
        <time>2022-03-14T16:13:05Z</time>
      </trkpt>
      <trkpt lat="49.40295" lon="-1.71517">
        <ele>78.4</ele>
        <time>2022-03-14T16:13:12Z</time>
      </trkpt>
      <trkpt lat="49.40289" lon="-1.71517">
        <ele>78.2</ele>
        <time>2022-03-14T16:13:16Z</time>
      </trkpt>
      <trkpt lat="49.40284" lon="-1.71517">
        <ele>77.8</ele>
        <time>2022-03-14T16:13:21Z</time>
      </trkpt>
      <trkpt lat="49.40279" lon="-1.71517">
        <ele>77.5</ele>
        <time>2022-03-14T16:13:24Z</time>
      </trkpt>
      <trkpt lat="49.40273" lon="-1.71516">
        <ele>77.2</ele>
        <time>2022-03-14T16:13:29Z</time>
      </trkpt>
      <trkpt lat="49.40269" lon="-1.71515">
        <ele>76.7</ele>
        <time>2022-03-14T16:13:33Z</time>
      </trkpt>
      <trkpt lat="49.40263" lon="-1.71515">
        <ele>76.2</ele>
        <time>2022-03-14T16:13:37Z</time>
      </trkpt>
      <trkpt lat="49.40259" lon="-1.71515">
        <ele>75.7</ele>
        <time>2022-03-14T16:13:40Z</time>
      </trkpt>
      <trkpt lat="49.40253" lon="-1.71515">
        <ele>75.4</ele>
        <time>2022-03-14T16:13:46Z</time>
      </trkpt>
      <trkpt lat="49.40248" lon="-1.71513">
        <ele>75.4</ele>
        <time>2022-03-14T16:13:50Z</time>
      </trkpt>
      <trkpt lat="49.40243" lon="-1.71516">
        <ele>75.3</ele>
        <time>2022-03-14T16:13:56Z</time>
      </trkpt>
      <trkpt lat="49.40238" lon="-1.71516">
        <ele>74.7</ele>
        <time>2022-03-14T16:14:01Z</time>
      </trkpt>
      <trkpt lat="49.40233" lon="-1.71514">
        <ele>74</ele>
        <time>2022-03-14T16:14:06Z</time>
      </trkpt>
      <trkpt lat="49.40227" lon="-1.71515">
        <ele>73.7</ele>
        <time>2022-03-14T16:14:10Z</time>
      </trkpt>
      <trkpt lat="49.40222" lon="-1.71516">
        <ele>73.6</ele>
        <time>2022-03-14T16:14:16Z</time>
      </trkpt>
      <trkpt lat="49.40216" lon="-1.71514">
        <ele>73.5</ele>
        <time>2022-03-14T16:14:21Z</time>
      </trkpt>
      <trkpt lat="49.40221" lon="-1.71513">
        <ele>72.6</ele>
        <time>2022-03-14T16:14:36Z</time>
      </trkpt>
      <trkpt lat="49.40226" lon="-1.71514">
        <ele>72.3</ele>
        <time>2022-03-14T16:14:52Z</time>
      </trkpt>
      <trkpt lat="49.4022" lon="-1.71513">
        <ele>72</ele>
        <time>2022-03-14T16:15:00Z</time>
      </trkpt>
      <trkpt lat="49.40216" lon="-1.71509">
        <ele>71.6</ele>
        <time>2022-03-14T16:15:06Z</time>
      </trkpt>
      <trkpt lat="49.4021" lon="-1.71511">
        <ele>71.8</ele>
        <time>2022-03-14T16:15:17Z</time>
      </trkpt>
      <trkpt lat="49.40205" lon="-1.71512">
        <ele>71.3</ele>
        <time>2022-03-14T16:15:20Z</time>
      </trkpt>
      <trkpt lat="49.402" lon="-1.7151">
        <ele>70.7</ele>
        <time>2022-03-14T16:15:22Z</time>
      </trkpt>
      <trkpt lat="49.40195" lon="-1.71509">
        <ele>70.4</ele>
        <time>2022-03-14T16:15:24Z</time>
      </trkpt>
      <trkpt lat="49.40189" lon="-1.71508">
        <ele>69.9</ele>
        <time>2022-03-14T16:15:27Z</time>
      </trkpt>
      <trkpt lat="49.40184" lon="-1.71505">
        <ele>69.5</ele>
        <time>2022-03-14T16:15:31Z</time>
      </trkpt>
      <trkpt lat="49.40179" lon="-1.71507">
        <ele>68.9</ele>
        <time>2022-03-14T16:15:34Z</time>
      </trkpt>
      <trkpt lat="49.40174" lon="-1.71506">
        <ele>68.3</ele>
        <time>2022-03-14T16:15:37Z</time>
      </trkpt>
      <trkpt lat="49.40168" lon="-1.71505">
        <ele>67.4</ele>
        <time>2022-03-14T16:15:42Z</time>
      </trkpt>
      <trkpt lat="49.40163" lon="-1.71505">
        <ele>66.4</ele>
        <time>2022-03-14T16:15:47Z</time>
      </trkpt>
      <trkpt lat="49.40158" lon="-1.71507">
        <ele>65.6</ele>
        <time>2022-03-14T16:15:51Z</time>
      </trkpt>
      <trkpt lat="49.40154" lon="-1.71507">
        <ele>65</ele>
        <time>2022-03-14T16:15:54Z</time>
      </trkpt>
      <trkpt lat="49.40149" lon="-1.71508">
        <ele>64.4</ele>
        <time>2022-03-14T16:15:57Z</time>
      </trkpt>
      <trkpt lat="49.40144" lon="-1.71507">
        <ele>64.1</ele>
        <time>2022-03-14T16:16:01Z</time>
      </trkpt>
      <trkpt lat="49.40139" lon="-1.71505">
        <ele>63.9</ele>
        <time>2022-03-14T16:16:05Z</time>
      </trkpt>
      <trkpt lat="49.40134" lon="-1.71504">
        <ele>63.6</ele>
        <time>2022-03-14T16:16:09Z</time>
      </trkpt>
      <trkpt lat="49.40131" lon="-1.715">
        <ele>63.5</ele>
        <time>2022-03-14T16:16:14Z</time>
      </trkpt>
      <trkpt lat="49.40126" lon="-1.715">
        <ele>63.4</ele>
        <time>2022-03-14T16:16:18Z</time>
      </trkpt>
      <trkpt lat="49.40121" lon="-1.71499">
        <ele>62.5</ele>
        <time>2022-03-14T16:16:23Z</time>
      </trkpt>
      <trkpt lat="49.40116" lon="-1.715">
        <ele>61.6</ele>
        <time>2022-03-14T16:16:27Z</time>
      </trkpt>
      <trkpt lat="49.4011" lon="-1.71499">
        <ele>60.8</ele>
        <time>2022-03-14T16:16:32Z</time>
      </trkpt>
      <trkpt lat="49.40106" lon="-1.71498">
        <ele>60.1</ele>
        <time>2022-03-14T16:16:35Z</time>
      </trkpt>
      <trkpt lat="49.401" lon="-1.71499">
        <ele>58.8</ele>
        <time>2022-03-14T16:16:39Z</time>
      </trkpt>
      <trkpt lat="49.40095" lon="-1.71498">
        <ele>57.6</ele>
        <time>2022-03-14T16:16:56Z</time>
      </trkpt>
      <trkpt lat="49.4009" lon="-1.71499">
        <ele>57.4</ele>
        <time>2022-03-14T16:16:59Z</time>
      </trkpt>
      <trkpt lat="49.40085" lon="-1.71499">
        <ele>56.9</ele>
        <time>2022-03-14T16:17:05Z</time>
      </trkpt>
      <trkpt lat="49.40081" lon="-1.71503">
        <ele>55.9</ele>
        <time>2022-03-14T16:17:34Z</time>
      </trkpt>
      <trkpt lat="49.40075" lon="-1.71501">
        <ele>55.7</ele>
        <time>2022-03-14T16:17:43Z</time>
      </trkpt>
      <trkpt lat="49.40069" lon="-1.71499">
        <ele>55.8</ele>
        <time>2022-03-14T16:17:46Z</time>
      </trkpt>
      <trkpt lat="49.40064" lon="-1.71498">
        <ele>55.9</ele>
        <time>2022-03-14T16:17:50Z</time>
      </trkpt>
      <trkpt lat="49.4006" lon="-1.715">
        <ele>56</ele>
        <time>2022-03-14T16:17:53Z</time>
      </trkpt>
      <trkpt lat="49.40054" lon="-1.71499">
        <ele>56.1</ele>
        <time>2022-03-14T16:17:58Z</time>
      </trkpt>
      <trkpt lat="49.40049" lon="-1.71499">
        <ele>56</ele>
        <time>2022-03-14T16:18:02Z</time>
      </trkpt>
      <trkpt lat="49.40044" lon="-1.715">
        <ele>55.9</ele>
        <time>2022-03-14T16:18:06Z</time>
      </trkpt>
      <trkpt lat="49.40039" lon="-1.71498">
        <ele>55.8</ele>
        <time>2022-03-14T16:18:09Z</time>
      </trkpt>
      <trkpt lat="49.40034" lon="-1.71496">
        <ele>55.8</ele>
        <time>2022-03-14T16:18:12Z</time>
      </trkpt>
      <trkpt lat="49.40029" lon="-1.71495">
        <ele>55.7</ele>
        <time>2022-03-14T16:18:16Z</time>
      </trkpt>
      <trkpt lat="49.40024" lon="-1.71494">
        <ele>55.6</ele>
        <time>2022-03-14T16:18:20Z</time>
      </trkpt>
      <trkpt lat="49.40019" lon="-1.71494">
        <ele>55.4</ele>
        <time>2022-03-14T16:18:23Z</time>
      </trkpt>
      <trkpt lat="49.40014" lon="-1.71495">
        <ele>55.1</ele>
        <time>2022-03-14T16:18:28Z</time>
      </trkpt>
      <trkpt lat="49.40008" lon="-1.71494">
        <ele>55</ele>
        <time>2022-03-14T16:18:31Z</time>
      </trkpt>
      <trkpt lat="49.40004" lon="-1.71493">
        <ele>54.8</ele>
        <time>2022-03-14T16:18:35Z</time>
      </trkpt>
      <trkpt lat="49.39998" lon="-1.7149">
        <ele>54.5</ele>
        <time>2022-03-14T16:18:39Z</time>
      </trkpt>
      <trkpt lat="49.39993" lon="-1.71491">
        <ele>54.2</ele>
        <time>2022-03-14T16:18:43Z</time>
      </trkpt>
      <trkpt lat="49.39989" lon="-1.71492">
        <ele>54.1</ele>
        <time>2022-03-14T16:18:46Z</time>
      </trkpt>
      <trkpt lat="49.39983" lon="-1.71488">
        <ele>54.2</ele>
        <time>2022-03-14T16:18:51Z</time>
      </trkpt>
      <trkpt lat="49.39978" lon="-1.71487">
        <ele>54.4</ele>
        <time>2022-03-14T16:18:54Z</time>
      </trkpt>
      <trkpt lat="49.39973" lon="-1.71486">
        <ele>54.4</ele>
        <time>2022-03-14T16:18:58Z</time>
      </trkpt>
      <trkpt lat="49.39968" lon="-1.71485">
        <ele>54.3</ele>
        <time>2022-03-14T16:19:02Z</time>
      </trkpt>
      <trkpt lat="49.39962" lon="-1.71483">
        <ele>54</ele>
        <time>2022-03-14T16:19:06Z</time>
      </trkpt>
      <trkpt lat="49.39956" lon="-1.71482">
        <ele>53.6</ele>
        <time>2022-03-14T16:19:11Z</time>
      </trkpt>
      <trkpt lat="49.39951" lon="-1.7148">
        <ele>53.1</ele>
        <time>2022-03-14T16:19:15Z</time>
      </trkpt>
      <trkpt lat="49.39946" lon="-1.71482">
        <ele>53.1</ele>
        <time>2022-03-14T16:19:20Z</time>
      </trkpt>
      <trkpt lat="49.39942" lon="-1.71483">
        <ele>53</ele>
        <time>2022-03-14T16:19:24Z</time>
      </trkpt>
      <trkpt lat="49.39937" lon="-1.71487">
        <ele>52.5</ele>
        <time>2022-03-14T16:19:36Z</time>
      </trkpt>
      <trkpt lat="49.39932" lon="-1.71493">
        <ele>52</ele>
        <time>2022-03-14T16:19:41Z</time>
      </trkpt>
      <trkpt lat="49.39927" lon="-1.71497">
        <ele>51.8</ele>
        <time>2022-03-14T16:19:45Z</time>
      </trkpt>
      <trkpt lat="49.39923" lon="-1.71499">
        <ele>51.6</ele>
        <time>2022-03-14T16:19:49Z</time>
      </trkpt>
      <trkpt lat="49.3992" lon="-1.71491">
        <ele>51</ele>
        <time>2022-03-14T16:20:01Z</time>
      </trkpt>
      <trkpt lat="49.39915" lon="-1.71488">
        <ele>51</ele>
        <time>2022-03-14T16:20:05Z</time>
      </trkpt>
      <trkpt lat="49.3991" lon="-1.7149">
        <ele>50.9</ele>
        <time>2022-03-14T16:20:08Z</time>
      </trkpt>
      <trkpt lat="49.39905" lon="-1.71494">
        <ele>50.9</ele>
        <time>2022-03-14T16:20:12Z</time>
      </trkpt>
      <trkpt lat="49.39901" lon="-1.71497">
        <ele>50.8</ele>
        <time>2022-03-14T16:20:16Z</time>
      </trkpt>
      <trkpt lat="49.39895" lon="-1.715">
        <ele>50.4</ele>
        <time>2022-03-14T16:20:20Z</time>
      </trkpt>
      <trkpt lat="49.3989" lon="-1.71501">
        <ele>50</ele>
        <time>2022-03-14T16:20:23Z</time>
      </trkpt>
      <trkpt lat="49.39886" lon="-1.71505">
        <ele>49.6</ele>
        <time>2022-03-14T16:20:26Z</time>
      </trkpt>
      <trkpt lat="49.39881" lon="-1.71508">
        <ele>49.2</ele>
        <time>2022-03-14T16:20:29Z</time>
      </trkpt>
      <trkpt lat="49.39876" lon="-1.71511">
        <ele>48.7</ele>
        <time>2022-03-14T16:20:32Z</time>
      </trkpt>
      <trkpt lat="49.39872" lon="-1.71513">
        <ele>48.3</ele>
        <time>2022-03-14T16:20:35Z</time>
      </trkpt>
      <trkpt lat="49.39867" lon="-1.71516">
        <ele>48.2</ele>
        <time>2022-03-14T16:20:40Z</time>
      </trkpt>
      <trkpt lat="49.39863" lon="-1.7151">
        <ele>48.1</ele>
        <time>2022-03-14T16:20:47Z</time>
      </trkpt>
      <trkpt lat="49.39864" lon="-1.71517">
        <ele>45.3</ele>
        <time>2022-03-14T16:21:49Z</time>
      </trkpt>
      <trkpt lat="49.39859" lon="-1.71511">
        <ele>47.1</ele>
        <time>2022-03-14T16:21:58Z</time>
      </trkpt>
      <trkpt lat="49.39854" lon="-1.71507">
        <ele>48.7</ele>
        <time>2022-03-14T16:22:16Z</time>
      </trkpt>
      <trkpt lat="49.39849" lon="-1.71509">
        <ele>47.9</ele>
        <time>2022-03-14T16:22:18Z</time>
      </trkpt>
      <trkpt lat="49.39844" lon="-1.7151">
        <ele>46.9</ele>
        <time>2022-03-14T16:22:21Z</time>
      </trkpt>
      <trkpt lat="49.39839" lon="-1.71509">
        <ele>46</ele>
        <time>2022-03-14T16:22:25Z</time>
      </trkpt>
      <trkpt lat="49.39835" lon="-1.71513">
        <ele>45.4</ele>
        <time>2022-03-14T16:22:30Z</time>
      </trkpt>
      <trkpt lat="49.39828" lon="-1.71514">
        <ele>44.5</ele>
        <time>2022-03-14T16:22:37Z</time>
      </trkpt>
      <trkpt lat="49.39823" lon="-1.71519">
        <ele>44</ele>
        <time>2022-03-14T16:22:41Z</time>
      </trkpt>
      <trkpt lat="49.39818" lon="-1.71523">
        <ele>44.3</ele>
        <time>2022-03-14T16:22:44Z</time>
      </trkpt>
      <trkpt lat="49.39812" lon="-1.71524">
        <ele>44.7</ele>
        <time>2022-03-14T16:22:47Z</time>
      </trkpt>
      <trkpt lat="49.39807" lon="-1.71525">
        <ele>45.4</ele>
        <time>2022-03-14T16:22:51Z</time>
      </trkpt>
      <trkpt lat="49.39802" lon="-1.71524">
        <ele>45.9</ele>
        <time>2022-03-14T16:22:54Z</time>
      </trkpt>
      <trkpt lat="49.39797" lon="-1.71528">
        <ele>46.1</ele>
        <time>2022-03-14T16:22:58Z</time>
      </trkpt>
      <trkpt lat="49.39792" lon="-1.71528">
        <ele>46.4</ele>
        <time>2022-03-14T16:23:04Z</time>
      </trkpt>
      <trkpt lat="49.39788" lon="-1.71529">
        <ele>46.6</ele>
        <time>2022-03-14T16:23:07Z</time>
      </trkpt>
      <trkpt lat="49.39783" lon="-1.71534">
        <ele>46.6</ele>
        <time>2022-03-14T16:23:12Z</time>
      </trkpt>
      <trkpt lat="49.39779" lon="-1.71538">
        <ele>46.7</ele>
        <time>2022-03-14T16:23:16Z</time>
      </trkpt>
      <trkpt lat="49.39774" lon="-1.7154">
        <ele>46.8</ele>
        <time>2022-03-14T16:23:19Z</time>
      </trkpt>
      <trkpt lat="49.39769" lon="-1.7154">
        <ele>47</ele>
        <time>2022-03-14T16:23:22Z</time>
      </trkpt>
      <trkpt lat="49.39765" lon="-1.71544">
        <ele>47.4</ele>
        <time>2022-03-14T16:23:25Z</time>
      </trkpt>
      <trkpt lat="49.39762" lon="-1.71549">
        <ele>47.8</ele>
        <time>2022-03-14T16:23:29Z</time>
      </trkpt>
      <trkpt lat="49.39758" lon="-1.71555">
        <ele>48.5</ele>
        <time>2022-03-14T16:23:32Z</time>
      </trkpt>
      <trkpt lat="49.39755" lon="-1.71561">
        <ele>49.2</ele>
        <time>2022-03-14T16:23:35Z</time>
      </trkpt>
      <trkpt lat="49.39751" lon="-1.71566">
        <ele>49.9</ele>
        <time>2022-03-14T16:23:39Z</time>
      </trkpt>
      <trkpt lat="49.39746" lon="-1.71571">
        <ele>50.5</ele>
        <time>2022-03-14T16:23:42Z</time>
      </trkpt>
      <trkpt lat="49.39742" lon="-1.71576">
        <ele>51.2</ele>
        <time>2022-03-14T16:23:46Z</time>
      </trkpt>
      <trkpt lat="49.39738" lon="-1.71581">
        <ele>51.6</ele>
        <time>2022-03-14T16:23:49Z</time>
      </trkpt>
      <trkpt lat="49.39734" lon="-1.71587">
        <ele>51.9</ele>
        <time>2022-03-14T16:23:53Z</time>
      </trkpt>
      <trkpt lat="49.3973" lon="-1.71592">
        <ele>52.2</ele>
        <time>2022-03-14T16:23:56Z</time>
      </trkpt>
      <trkpt lat="49.39726" lon="-1.71596">
        <ele>52.5</ele>
        <time>2022-03-14T16:23:59Z</time>
      </trkpt>
      <trkpt lat="49.39723" lon="-1.71602">
        <ele>52.9</ele>
        <time>2022-03-14T16:24:03Z</time>
      </trkpt>
      <trkpt lat="49.39719" lon="-1.71607">
        <ele>53.1</ele>
        <time>2022-03-14T16:24:07Z</time>
      </trkpt>
      <trkpt lat="49.39715" lon="-1.71613">
        <ele>53.2</ele>
        <time>2022-03-14T16:24:10Z</time>
      </trkpt>
      <trkpt lat="49.39712" lon="-1.71619">
        <ele>53.1</ele>
        <time>2022-03-14T16:24:15Z</time>
      </trkpt>
      <trkpt lat="49.39709" lon="-1.71625">
        <ele>53.2</ele>
        <time>2022-03-14T16:24:18Z</time>
      </trkpt>
      <trkpt lat="49.39705" lon="-1.71629">
        <ele>53.3</ele>
        <time>2022-03-14T16:24:21Z</time>
      </trkpt>
      <trkpt lat="49.39702" lon="-1.71635">
        <ele>53.4</ele>
        <time>2022-03-14T16:24:25Z</time>
      </trkpt>
      <trkpt lat="49.397" lon="-1.71641">
        <ele>53.2</ele>
        <time>2022-03-14T16:24:27Z</time>
      </trkpt>
      <trkpt lat="49.39696" lon="-1.71648">
        <ele>53</ele>
        <time>2022-03-14T16:24:32Z</time>
      </trkpt>
      <trkpt lat="49.39692" lon="-1.71653">
        <ele>53.1</ele>
        <time>2022-03-14T16:24:36Z</time>
      </trkpt>
      <trkpt lat="49.39689" lon="-1.7166">
        <ele>53.3</ele>
        <time>2022-03-14T16:24:43Z</time>
      </trkpt>
      <trkpt lat="49.39687" lon="-1.71667">
        <ele>53.6</ele>
        <time>2022-03-14T16:24:46Z</time>
      </trkpt>
      <trkpt lat="49.39685" lon="-1.71676">
        <ele>54.3</ele>
        <time>2022-03-14T16:24:50Z</time>
      </trkpt>
      <trkpt lat="49.39682" lon="-1.71681">
        <ele>55.1</ele>
        <time>2022-03-14T16:24:54Z</time>
      </trkpt>
      <trkpt lat="49.39679" lon="-1.71687">
        <ele>55.9</ele>
        <time>2022-03-14T16:24:57Z</time>
      </trkpt>
      <trkpt lat="49.39676" lon="-1.71693">
        <ele>56.5</ele>
        <time>2022-03-14T16:25:00Z</time>
      </trkpt>
      <trkpt lat="49.39673" lon="-1.717">
        <ele>57</ele>
        <time>2022-03-14T16:25:05Z</time>
      </trkpt>
      <trkpt lat="49.3967" lon="-1.71708">
        <ele>57.3</ele>
        <time>2022-03-14T16:25:09Z</time>
      </trkpt>
      <trkpt lat="49.39668" lon="-1.71715">
        <ele>57.5</ele>
        <time>2022-03-14T16:25:14Z</time>
      </trkpt>
      <trkpt lat="49.39665" lon="-1.71723">
        <ele>57.8</ele>
        <time>2022-03-14T16:25:18Z</time>
      </trkpt>
      <trkpt lat="49.39664" lon="-1.7173">
        <ele>58</ele>
        <time>2022-03-14T16:25:22Z</time>
      </trkpt>
      <trkpt lat="49.39663" lon="-1.71737">
        <ele>58.3</ele>
        <time>2022-03-14T16:25:26Z</time>
      </trkpt>
      <trkpt lat="49.39661" lon="-1.71745">
        <ele>58.7</ele>
        <time>2022-03-14T16:25:30Z</time>
      </trkpt>
      <trkpt lat="49.39659" lon="-1.71752">
        <ele>59</ele>
        <time>2022-03-14T16:25:35Z</time>
      </trkpt>
      <trkpt lat="49.39655" lon="-1.71757">
        <ele>59.2</ele>
        <time>2022-03-14T16:25:40Z</time>
      </trkpt>
      <trkpt lat="49.39652" lon="-1.71763">
        <ele>59.3</ele>
        <time>2022-03-14T16:25:44Z</time>
      </trkpt>
      <trkpt lat="49.3965" lon="-1.7177">
        <ele>59.3</ele>
        <time>2022-03-14T16:25:48Z</time>
      </trkpt>
      <trkpt lat="49.39648" lon="-1.71778">
        <ele>59.3</ele>
        <time>2022-03-14T16:25:52Z</time>
      </trkpt>
      <trkpt lat="49.39647" lon="-1.71785">
        <ele>59.3</ele>
        <time>2022-03-14T16:25:55Z</time>
      </trkpt>
      <trkpt lat="49.39645" lon="-1.71792">
        <ele>59.3</ele>
        <time>2022-03-14T16:25:58Z</time>
      </trkpt>
      <trkpt lat="49.3964" lon="-1.71799">
        <ele>59.3</ele>
        <time>2022-03-14T16:26:00Z</time>
      </trkpt>
      <trkpt lat="49.39636" lon="-1.71803">
        <ele>59.4</ele>
        <time>2022-03-14T16:26:02Z</time>
      </trkpt>
      <trkpt lat="49.39632" lon="-1.71809">
        <ele>59.8</ele>
        <time>2022-03-14T16:26:05Z</time>
      </trkpt>
      <trkpt lat="49.39627" lon="-1.71812">
        <ele>60.2</ele>
        <time>2022-03-14T16:26:09Z</time>
      </trkpt>
      <trkpt lat="49.39623" lon="-1.71817">
        <ele>60.3</ele>
        <time>2022-03-14T16:26:14Z</time>
      </trkpt>
      <trkpt lat="49.39619" lon="-1.71823">
        <ele>60.4</ele>
        <time>2022-03-14T16:26:20Z</time>
      </trkpt>
      <trkpt lat="49.39615" lon="-1.71828">
        <ele>60.6</ele>
        <time>2022-03-14T16:26:25Z</time>
      </trkpt>
      <trkpt lat="49.39611" lon="-1.71832">
        <ele>60.7</ele>
        <time>2022-03-14T16:26:30Z</time>
      </trkpt>
      <trkpt lat="49.39606" lon="-1.71835">
        <ele>60.9</ele>
        <time>2022-03-14T16:26:36Z</time>
      </trkpt>
      <trkpt lat="49.39601" lon="-1.71839">
        <ele>60.8</ele>
        <time>2022-03-14T16:26:46Z</time>
      </trkpt>
      <trkpt lat="49.39597" lon="-1.71844">
        <ele>60.7</ele>
        <time>2022-03-14T16:26:49Z</time>
      </trkpt>
      <trkpt lat="49.39596" lon="-1.71851">
        <ele>60.3</ele>
        <time>2022-03-14T16:26:53Z</time>
      </trkpt>
      <trkpt lat="49.39591" lon="-1.71856">
        <ele>59.8</ele>
        <time>2022-03-14T16:26:57Z</time>
      </trkpt>
      <trkpt lat="49.39585" lon="-1.71858">
        <ele>59.6</ele>
        <time>2022-03-14T16:27:00Z</time>
      </trkpt>
      <trkpt lat="49.39581" lon="-1.71862">
        <ele>59.6</ele>
        <time>2022-03-14T16:27:03Z</time>
      </trkpt>
      <trkpt lat="49.39576" lon="-1.71866">
        <ele>59.9</ele>
        <time>2022-03-14T16:27:07Z</time>
      </trkpt>
      <trkpt lat="49.39573" lon="-1.71871">
        <ele>60</ele>
        <time>2022-03-14T16:27:10Z</time>
      </trkpt>
      <trkpt lat="49.39569" lon="-1.71876">
        <ele>60</ele>
        <time>2022-03-14T16:27:14Z</time>
      </trkpt>
      <trkpt lat="49.39565" lon="-1.71879">
        <ele>59.9</ele>
        <time>2022-03-14T16:27:17Z</time>
      </trkpt>
      <trkpt lat="49.39561" lon="-1.71885">
        <ele>59.9</ele>
        <time>2022-03-14T16:27:20Z</time>
      </trkpt>
      <trkpt lat="49.39557" lon="-1.71888">
        <ele>59.9</ele>
        <time>2022-03-14T16:27:23Z</time>
      </trkpt>
      <trkpt lat="49.39552" lon="-1.71889">
        <ele>59.8</ele>
        <time>2022-03-14T16:27:27Z</time>
      </trkpt>
      <trkpt lat="49.39547" lon="-1.71895">
        <ele>59.7</ele>
        <time>2022-03-14T16:27:30Z</time>
      </trkpt>
      <trkpt lat="49.39544" lon="-1.71901">
        <ele>59.6</ele>
        <time>2022-03-14T16:27:35Z</time>
      </trkpt>
      <trkpt lat="49.39542" lon="-1.71909">
        <ele>59.6</ele>
        <time>2022-03-14T16:27:39Z</time>
      </trkpt>
      <trkpt lat="49.39539" lon="-1.71916">
        <ele>59.7</ele>
        <time>2022-03-14T16:27:45Z</time>
      </trkpt>
      <trkpt lat="49.39535" lon="-1.71922">
        <ele>59.9</ele>
        <time>2022-03-14T16:27:49Z</time>
      </trkpt>
      <trkpt lat="49.39531" lon="-1.71928">
        <ele>60.1</ele>
        <time>2022-03-14T16:27:52Z</time>
      </trkpt>
      <trkpt lat="49.39528" lon="-1.71934">
        <ele>60.5</ele>
        <time>2022-03-14T16:27:56Z</time>
      </trkpt>
      <trkpt lat="49.39525" lon="-1.71941">
        <ele>58.7</ele>
        <time>2022-03-14T16:28:22Z</time>
      </trkpt>
      <trkpt lat="49.39522" lon="-1.71947">
        <ele>58.6</ele>
        <time>2022-03-14T16:28:26Z</time>
      </trkpt>
      <trkpt lat="49.39518" lon="-1.71953">
        <ele>58.7</ele>
        <time>2022-03-14T16:28:30Z</time>
      </trkpt>
      <trkpt lat="49.39513" lon="-1.71958">
        <ele>58.9</ele>
        <time>2022-03-14T16:28:33Z</time>
      </trkpt>
      <trkpt lat="49.39509" lon="-1.71962">
        <ele>58.9</ele>
        <time>2022-03-14T16:28:35Z</time>
      </trkpt>
      <trkpt lat="49.39504" lon="-1.71966">
        <ele>59</ele>
        <time>2022-03-14T16:28:39Z</time>
      </trkpt>
      <trkpt lat="49.39498" lon="-1.71969">
        <ele>59.2</ele>
        <time>2022-03-14T16:28:43Z</time>
      </trkpt>
      <trkpt lat="49.39494" lon="-1.71975">
        <ele>59.4</ele>
        <time>2022-03-14T16:28:47Z</time>
      </trkpt>
      <trkpt lat="49.3949" lon="-1.71979">
        <ele>59.3</ele>
        <time>2022-03-14T16:28:51Z</time>
      </trkpt>
      <trkpt lat="49.39484" lon="-1.71981">
        <ele>59</ele>
        <time>2022-03-14T16:28:55Z</time>
      </trkpt>
      <trkpt lat="49.3948" lon="-1.71984">
        <ele>58.8</ele>
        <time>2022-03-14T16:29:00Z</time>
      </trkpt>
      <trkpt lat="49.39474" lon="-1.71988">
        <ele>58.5</ele>
        <time>2022-03-14T16:29:04Z</time>
      </trkpt>
      <trkpt lat="49.39471" lon="-1.71994">
        <ele>58.5</ele>
        <time>2022-03-14T16:29:07Z</time>
      </trkpt>
      <trkpt lat="49.39466" lon="-1.71997">
        <ele>58.4</ele>
        <time>2022-03-14T16:29:11Z</time>
      </trkpt>
      <trkpt lat="49.39462" lon="-1.72001">
        <ele>58.1</ele>
        <time>2022-03-14T16:29:14Z</time>
      </trkpt>
      <trkpt lat="49.39459" lon="-1.72005">
        <ele>57.7</ele>
        <time>2022-03-14T16:29:17Z</time>
      </trkpt>
      <trkpt lat="49.39454" lon="-1.72009">
        <ele>57.6</ele>
        <time>2022-03-14T16:29:22Z</time>
      </trkpt>
      <trkpt lat="49.39448" lon="-1.72013">
        <ele>57.7</ele>
        <time>2022-03-14T16:29:26Z</time>
      </trkpt>
      <trkpt lat="49.39444" lon="-1.72017">
        <ele>57.7</ele>
        <time>2022-03-14T16:29:30Z</time>
      </trkpt>
      <trkpt lat="49.39439" lon="-1.72023">
        <ele>57.8</ele>
        <time>2022-03-14T16:29:34Z</time>
      </trkpt>
      <trkpt lat="49.39435" lon="-1.72027">
        <ele>58</ele>
        <time>2022-03-14T16:29:37Z</time>
      </trkpt>
      <trkpt lat="49.39431" lon="-1.72031">
        <ele>58.1</ele>
        <time>2022-03-14T16:29:41Z</time>
      </trkpt>
      <trkpt lat="49.39426" lon="-1.72034">
        <ele>58.2</ele>
        <time>2022-03-14T16:29:45Z</time>
      </trkpt>
      <trkpt lat="49.39422" lon="-1.72037">
        <ele>59.9</ele>
        <time>2022-03-14T16:29:59Z</time>
      </trkpt>
      <trkpt lat="49.39416" lon="-1.7204">
        <ele>59.9</ele>
        <time>2022-03-14T16:30:04Z</time>
      </trkpt>
      <trkpt lat="49.39411" lon="-1.72044">
        <ele>59.9</ele>
        <time>2022-03-14T16:30:06Z</time>
      </trkpt>
      <trkpt lat="49.39407" lon="-1.72048">
        <ele>59.9</ele>
        <time>2022-03-14T16:30:09Z</time>
      </trkpt>
      <trkpt lat="49.39402" lon="-1.72052">
        <ele>60.2</ele>
        <time>2022-03-14T16:30:11Z</time>
      </trkpt>
      <trkpt lat="49.39396" lon="-1.72057">
        <ele>60.6</ele>
        <time>2022-03-14T16:30:13Z</time>
      </trkpt>
      <trkpt lat="49.39393" lon="-1.72061">
        <ele>61.1</ele>
        <time>2022-03-14T16:30:15Z</time>
      </trkpt>
      <trkpt lat="49.39388" lon="-1.72067">
        <ele>61.7</ele>
        <time>2022-03-14T16:30:19Z</time>
      </trkpt>
      <trkpt lat="49.39383" lon="-1.72068">
        <ele>62.2</ele>
        <time>2022-03-14T16:30:22Z</time>
      </trkpt>
      <trkpt lat="49.39378" lon="-1.72073">
        <ele>62.8</ele>
        <time>2022-03-14T16:30:26Z</time>
      </trkpt>
      <trkpt lat="49.39375" lon="-1.72078">
        <ele>63.2</ele>
        <time>2022-03-14T16:30:30Z</time>
      </trkpt>
      <trkpt lat="49.39371" lon="-1.72082">
        <ele>63.2</ele>
        <time>2022-03-14T16:30:33Z</time>
      </trkpt>
      <trkpt lat="49.39367" lon="-1.72085">
        <ele>63.4</ele>
        <time>2022-03-14T16:30:36Z</time>
      </trkpt>
      <trkpt lat="49.39361" lon="-1.72088">
        <ele>63.9</ele>
        <time>2022-03-14T16:30:41Z</time>
      </trkpt>
      <trkpt lat="49.39357" lon="-1.72091">
        <ele>64.3</ele>
        <time>2022-03-14T16:30:44Z</time>
      </trkpt>
      <trkpt lat="49.39352" lon="-1.72095">
        <ele>64.6</ele>
        <time>2022-03-14T16:30:48Z</time>
      </trkpt>
      <trkpt lat="49.39349" lon="-1.72099">
        <ele>65</ele>
        <time>2022-03-14T16:30:51Z</time>
      </trkpt>
      <trkpt lat="49.39344" lon="-1.72104">
        <ele>65.7</ele>
        <time>2022-03-14T16:30:55Z</time>
      </trkpt>
      <trkpt lat="49.39339" lon="-1.72109">
        <ele>66.3</ele>
        <time>2022-03-14T16:31:00Z</time>
      </trkpt>
      <trkpt lat="49.39334" lon="-1.72114">
        <ele>66.7</ele>
        <time>2022-03-14T16:31:04Z</time>
      </trkpt>
      <trkpt lat="49.39331" lon="-1.72118">
        <ele>66.8</ele>
        <time>2022-03-14T16:31:08Z</time>
      </trkpt>
      <trkpt lat="49.39327" lon="-1.72124">
        <ele>66.8</ele>
        <time>2022-03-14T16:31:11Z</time>
      </trkpt>
      <trkpt lat="49.39324" lon="-1.72129">
        <ele>66.9</ele>
        <time>2022-03-14T16:31:14Z</time>
      </trkpt>
      <trkpt lat="49.3932" lon="-1.72135">
        <ele>67</ele>
        <time>2022-03-14T16:31:18Z</time>
      </trkpt>
      <trkpt lat="49.39316" lon="-1.7214">
        <ele>67.1</ele>
        <time>2022-03-14T16:31:22Z</time>
      </trkpt>
      <trkpt lat="49.39313" lon="-1.72146">
        <ele>67.2</ele>
        <time>2022-03-14T16:31:30Z</time>
      </trkpt>
      <trkpt lat="49.3931" lon="-1.72154">
        <ele>67.2</ele>
        <time>2022-03-14T16:31:34Z</time>
      </trkpt>
      <trkpt lat="49.39306" lon="-1.72159">
        <ele>67.2</ele>
        <time>2022-03-14T16:31:37Z</time>
      </trkpt>
      <trkpt lat="49.39303" lon="-1.72165">
        <ele>67.3</ele>
        <time>2022-03-14T16:31:40Z</time>
      </trkpt>
      <trkpt lat="49.393" lon="-1.7217">
        <ele>67.5</ele>
        <time>2022-03-14T16:31:43Z</time>
      </trkpt>
      <trkpt lat="49.39297" lon="-1.72175">
        <ele>67.7</ele>
        <time>2022-03-14T16:31:47Z</time>
      </trkpt>
      <trkpt lat="49.39294" lon="-1.72182">
        <ele>67.8</ele>
        <time>2022-03-14T16:31:51Z</time>
      </trkpt>
      <trkpt lat="49.39289" lon="-1.72187">
        <ele>68</ele>
        <time>2022-03-14T16:31:56Z</time>
      </trkpt>
      <trkpt lat="49.39285" lon="-1.72192">
        <ele>68.3</ele>
        <time>2022-03-14T16:32:00Z</time>
      </trkpt>
      <trkpt lat="49.39282" lon="-1.72199">
        <ele>68.5</ele>
        <time>2022-03-14T16:32:05Z</time>
      </trkpt>
      <trkpt lat="49.39277" lon="-1.72205">
        <ele>68.6</ele>
        <time>2022-03-14T16:32:09Z</time>
      </trkpt>
      <trkpt lat="49.39273" lon="-1.7221">
        <ele>68.4</ele>
        <time>2022-03-14T16:32:13Z</time>
      </trkpt>
      <trkpt lat="49.39268" lon="-1.72215">
        <ele>68.2</ele>
        <time>2022-03-14T16:32:17Z</time>
      </trkpt>
      <trkpt lat="49.39265" lon="-1.72219">
        <ele>68.1</ele>
        <time>2022-03-14T16:32:20Z</time>
      </trkpt>
      <trkpt lat="49.3926" lon="-1.72222">
        <ele>68.1</ele>
        <time>2022-03-14T16:32:24Z</time>
      </trkpt>
      <trkpt lat="49.39256" lon="-1.72225">
        <ele>68.2</ele>
        <time>2022-03-14T16:32:27Z</time>
      </trkpt>
      <trkpt lat="49.39251" lon="-1.72229">
        <ele>68.2</ele>
        <time>2022-03-14T16:32:31Z</time>
      </trkpt>
      <trkpt lat="49.39247" lon="-1.72234">
        <ele>68.5</ele>
        <time>2022-03-14T16:32:35Z</time>
      </trkpt>
      <trkpt lat="49.39243" lon="-1.72237">
        <ele>68.6</ele>
        <time>2022-03-14T16:32:38Z</time>
      </trkpt>
      <trkpt lat="49.39238" lon="-1.72239">
        <ele>68.6</ele>
        <time>2022-03-14T16:32:42Z</time>
      </trkpt>
      <trkpt lat="49.39233" lon="-1.72242">
        <ele>68.3</ele>
        <time>2022-03-14T16:32:45Z</time>
      </trkpt>
      <trkpt lat="49.39228" lon="-1.72245">
        <ele>68.3</ele>
        <time>2022-03-14T16:32:48Z</time>
      </trkpt>
      <trkpt lat="49.39222" lon="-1.72247">
        <ele>68.5</ele>
        <time>2022-03-14T16:32:52Z</time>
      </trkpt>
      <trkpt lat="49.39217" lon="-1.72249">
        <ele>68.8</ele>
        <time>2022-03-14T16:32:55Z</time>
      </trkpt>
      <trkpt lat="49.39212" lon="-1.72251">
        <ele>68.8</ele>
        <time>2022-03-14T16:32:58Z</time>
      </trkpt>
      <trkpt lat="49.39207" lon="-1.72253">
        <ele>68.8</ele>
        <time>2022-03-14T16:33:02Z</time>
      </trkpt>
      <trkpt lat="49.39203" lon="-1.72255">
        <ele>68.7</ele>
        <time>2022-03-14T16:33:05Z</time>
      </trkpt>
      <trkpt lat="49.39197" lon="-1.72256">
        <ele>68.5</ele>
        <time>2022-03-14T16:33:08Z</time>
      </trkpt>
      <trkpt lat="49.39192" lon="-1.72257">
        <ele>68.5</ele>
        <time>2022-03-14T16:33:11Z</time>
      </trkpt>
      <trkpt lat="49.39186" lon="-1.7226">
        <ele>68.6</ele>
        <time>2022-03-14T16:33:16Z</time>
      </trkpt>
      <trkpt lat="49.39181" lon="-1.72263">
        <ele>69.3</ele>
        <time>2022-03-14T16:33:20Z</time>
      </trkpt>
      <trkpt lat="49.39177" lon="-1.72267">
        <ele>69.8</ele>
        <time>2022-03-14T16:33:23Z</time>
      </trkpt>
      <trkpt lat="49.39174" lon="-1.72272">
        <ele>69.9</ele>
        <time>2022-03-14T16:33:26Z</time>
      </trkpt>
      <trkpt lat="49.39172" lon="-1.72278">
        <ele>69.9</ele>
        <time>2022-03-14T16:33:30Z</time>
      </trkpt>
      <trkpt lat="49.39167" lon="-1.72285">
        <ele>69.8</ele>
        <time>2022-03-14T16:33:34Z</time>
      </trkpt>
      <trkpt lat="49.39163" lon="-1.72289">
        <ele>69.8</ele>
        <time>2022-03-14T16:33:39Z</time>
      </trkpt>
      <trkpt lat="49.3916" lon="-1.72295">
        <ele>70.2</ele>
        <time>2022-03-14T16:33:42Z</time>
      </trkpt>
      <trkpt lat="49.39158" lon="-1.72303">
        <ele>70.6</ele>
        <time>2022-03-14T16:33:46Z</time>
      </trkpt>
      <trkpt lat="49.39155" lon="-1.72308">
        <ele>70.7</ele>
        <time>2022-03-14T16:33:49Z</time>
      </trkpt>
      <trkpt lat="49.39151" lon="-1.72314">
        <ele>70.8</ele>
        <time>2022-03-14T16:33:53Z</time>
      </trkpt>
      <trkpt lat="49.39148" lon="-1.72318">
        <ele>70.6</ele>
        <time>2022-03-14T16:33:56Z</time>
      </trkpt>
      <trkpt lat="49.39144" lon="-1.72323">
        <ele>70.7</ele>
        <time>2022-03-14T16:33:59Z</time>
      </trkpt>
      <trkpt lat="49.3914" lon="-1.72328">
        <ele>70.9</ele>
        <time>2022-03-14T16:34:02Z</time>
      </trkpt>
      <trkpt lat="49.39136" lon="-1.72334">
        <ele>71.3</ele>
        <time>2022-03-14T16:34:07Z</time>
      </trkpt>
      <trkpt lat="49.39131" lon="-1.72339">
        <ele>71.4</ele>
        <time>2022-03-14T16:34:11Z</time>
      </trkpt>
      <trkpt lat="49.39127" lon="-1.72341">
        <ele>71.3</ele>
        <time>2022-03-14T16:34:19Z</time>
      </trkpt>
      <trkpt lat="49.39121" lon="-1.72342">
        <ele>71.3</ele>
        <time>2022-03-14T16:34:28Z</time>
      </trkpt>
      <trkpt lat="49.39118" lon="-1.72346">
        <ele>71.8</ele>
        <time>2022-03-14T16:34:35Z</time>
      </trkpt>
      <trkpt lat="49.39118" lon="-1.72353">
        <ele>72.3</ele>
        <time>2022-03-14T16:36:52Z</time>
      </trkpt>
      <trkpt lat="49.3912" lon="-1.72361">
        <ele>72.4</ele>
        <time>2022-03-14T16:36:55Z</time>
      </trkpt>
      <trkpt lat="49.39122" lon="-1.7237">
        <ele>72.5</ele>
        <time>2022-03-14T16:36:59Z</time>
      </trkpt>
      <trkpt lat="49.39126" lon="-1.72375">
        <ele>72.5</ele>
        <time>2022-03-14T16:37:03Z</time>
      </trkpt>
      <trkpt lat="49.3913" lon="-1.72381">
        <ele>72.5</ele>
        <time>2022-03-14T16:37:06Z</time>
      </trkpt>
      <trkpt lat="49.39134" lon="-1.72387">
        <ele>72.4</ele>
        <time>2022-03-14T16:37:11Z</time>
      </trkpt>
      <trkpt lat="49.39139" lon="-1.72392">
        <ele>72.1</ele>
        <time>2022-03-14T16:37:15Z</time>
      </trkpt>
      <trkpt lat="49.39143" lon="-1.72397">
        <ele>71.9</ele>
        <time>2022-03-14T16:37:18Z</time>
      </trkpt>
      <trkpt lat="49.39146" lon="-1.72401">
        <ele>71.8</ele>
        <time>2022-03-14T16:37:21Z</time>
      </trkpt>
      <trkpt lat="49.3915" lon="-1.72405">
        <ele>71.7</ele>
        <time>2022-03-14T16:37:25Z</time>
      </trkpt>
      <trkpt lat="49.39155" lon="-1.72411">
        <ele>71.7</ele>
        <time>2022-03-14T16:37:28Z</time>
      </trkpt>
      <trkpt lat="49.39159" lon="-1.72416">
        <ele>71.9</ele>
        <time>2022-03-14T16:37:32Z</time>
      </trkpt>
      <trkpt lat="49.39164" lon="-1.7242">
        <ele>72.4</ele>
        <time>2022-03-14T16:37:36Z</time>
      </trkpt>
      <trkpt lat="49.39167" lon="-1.72428">
        <ele>72.4</ele>
        <time>2022-03-14T16:37:39Z</time>
      </trkpt>
      <trkpt lat="49.39171" lon="-1.72434">
        <ele>72.3</ele>
        <time>2022-03-14T16:37:42Z</time>
      </trkpt>
      <trkpt lat="49.39175" lon="-1.72441">
        <ele>72.2</ele>
        <time>2022-03-14T16:37:47Z</time>
      </trkpt>
      <trkpt lat="49.39179" lon="-1.72446">
        <ele>72.2</ele>
        <time>2022-03-14T16:37:50Z</time>
      </trkpt>
      <trkpt lat="49.39183" lon="-1.72453">
        <ele>72</ele>
        <time>2022-03-14T16:37:55Z</time>
      </trkpt>
      <trkpt lat="49.39187" lon="-1.7246">
        <ele>71.6</ele>
        <time>2022-03-14T16:37:59Z</time>
      </trkpt>
      <trkpt lat="49.3919" lon="-1.72466">
        <ele>71.4</ele>
        <time>2022-03-14T16:38:02Z</time>
      </trkpt>
      <trkpt lat="49.39193" lon="-1.72472">
        <ele>71.3</ele>
        <time>2022-03-14T16:38:05Z</time>
      </trkpt>
      <trkpt lat="49.39195" lon="-1.72478">
        <ele>71.3</ele>
        <time>2022-03-14T16:38:08Z</time>
      </trkpt>
      <trkpt lat="49.39198" lon="-1.72486">
        <ele>71.1</ele>
        <time>2022-03-14T16:38:11Z</time>
      </trkpt>
      <trkpt lat="49.39201" lon="-1.72492">
        <ele>71.1</ele>
        <time>2022-03-14T16:38:14Z</time>
      </trkpt>
      <trkpt lat="49.39203" lon="-1.72498">
        <ele>71.3</ele>
        <time>2022-03-14T16:38:18Z</time>
      </trkpt>
      <trkpt lat="49.39206" lon="-1.72505">
        <ele>71.9</ele>
        <time>2022-03-14T16:38:21Z</time>
      </trkpt>
      <trkpt lat="49.39209" lon="-1.72512">
        <ele>72.5</ele>
        <time>2022-03-14T16:38:24Z</time>
      </trkpt>
      <trkpt lat="49.39212" lon="-1.7252">
        <ele>73.2</ele>
        <time>2022-03-14T16:38:28Z</time>
      </trkpt>
      <trkpt lat="49.39216" lon="-1.72526">
        <ele>74.1</ele>
        <time>2022-03-14T16:38:31Z</time>
      </trkpt>
      <trkpt lat="49.39219" lon="-1.72533">
        <ele>74.9</ele>
        <time>2022-03-14T16:38:34Z</time>
      </trkpt>
      <trkpt lat="49.39221" lon="-1.7254">
        <ele>75.4</ele>
        <time>2022-03-14T16:38:38Z</time>
      </trkpt>
      <trkpt lat="49.39224" lon="-1.72547">
        <ele>75.4</ele>
        <time>2022-03-14T16:38:41Z</time>
      </trkpt>
      <trkpt lat="49.39225" lon="-1.72556">
        <ele>75.5</ele>
        <time>2022-03-14T16:38:44Z</time>
      </trkpt>
      <trkpt lat="49.39225" lon="-1.72565">
        <ele>75.5</ele>
        <time>2022-03-14T16:38:48Z</time>
      </trkpt>
      <trkpt lat="49.3922" lon="-1.72568">
        <ele>75.3</ele>
        <time>2022-03-14T16:38:52Z</time>
      </trkpt>
      <trkpt lat="49.39214" lon="-1.72567">
        <ele>74.9</ele>
        <time>2022-03-14T16:38:55Z</time>
      </trkpt>
      <trkpt lat="49.39209" lon="-1.72565">
        <ele>74.2</ele>
        <time>2022-03-14T16:39:01Z</time>
      </trkpt>
      <trkpt lat="49.39203" lon="-1.7257">
        <ele>74.1</ele>
        <time>2022-03-14T16:39:05Z</time>
      </trkpt>
      <trkpt lat="49.39198" lon="-1.72575">
        <ele>74</ele>
        <time>2022-03-14T16:39:08Z</time>
      </trkpt>
      <trkpt lat="49.39192" lon="-1.7258">
        <ele>73.9</ele>
        <time>2022-03-14T16:39:12Z</time>
      </trkpt>
      <trkpt lat="49.39188" lon="-1.72586">
        <ele>73.5</ele>
        <time>2022-03-14T16:39:15Z</time>
      </trkpt>
      <trkpt lat="49.39182" lon="-1.72588">
        <ele>73.1</ele>
        <time>2022-03-14T16:39:19Z</time>
      </trkpt>
      <trkpt lat="49.39178" lon="-1.72593">
        <ele>72.9</ele>
        <time>2022-03-14T16:39:23Z</time>
      </trkpt>
      <trkpt lat="49.39175" lon="-1.72598">
        <ele>72.8</ele>
        <time>2022-03-14T16:39:26Z</time>
      </trkpt>
      <trkpt lat="49.39172" lon="-1.72603">
        <ele>72.8</ele>
        <time>2022-03-14T16:39:29Z</time>
      </trkpt>
      <trkpt lat="49.39169" lon="-1.72609">
        <ele>72.8</ele>
        <time>2022-03-14T16:39:34Z</time>
      </trkpt>
      <trkpt lat="49.39166" lon="-1.72615">
        <ele>72.7</ele>
        <time>2022-03-14T16:39:38Z</time>
      </trkpt>
      <trkpt lat="49.39162" lon="-1.7262">
        <ele>72.8</ele>
        <time>2022-03-14T16:39:42Z</time>
      </trkpt>
      <trkpt lat="49.39158" lon="-1.72625">
        <ele>72.9</ele>
        <time>2022-03-14T16:39:45Z</time>
      </trkpt>
      <trkpt lat="49.39154" lon="-1.7263">
        <ele>73</ele>
        <time>2022-03-14T16:39:49Z</time>
      </trkpt>
      <trkpt lat="49.39149" lon="-1.72634">
        <ele>72.9</ele>
        <time>2022-03-14T16:39:52Z</time>
      </trkpt>
      <trkpt lat="49.39146" lon="-1.72639">
        <ele>72.9</ele>
        <time>2022-03-14T16:39:55Z</time>
      </trkpt>
      <trkpt lat="49.39142" lon="-1.72644">
        <ele>72.7</ele>
        <time>2022-03-14T16:39:59Z</time>
      </trkpt>
      <trkpt lat="49.39138" lon="-1.72649">
        <ele>72.7</ele>
        <time>2022-03-14T16:40:02Z</time>
      </trkpt>
      <trkpt lat="49.39136" lon="-1.72654">
        <ele>72.5</ele>
        <time>2022-03-14T16:40:06Z</time>
      </trkpt>
      <trkpt lat="49.39133" lon="-1.72661">
        <ele>72.4</ele>
        <time>2022-03-14T16:40:09Z</time>
      </trkpt>
      <trkpt lat="49.3913" lon="-1.72666">
        <ele>72</ele>
        <time>2022-03-14T16:40:12Z</time>
      </trkpt>
      <trkpt lat="49.39127" lon="-1.72671">
        <ele>71.7</ele>
        <time>2022-03-14T16:40:16Z</time>
      </trkpt>
      <trkpt lat="49.39122" lon="-1.72676">
        <ele>71.9</ele>
        <time>2022-03-14T16:40:21Z</time>
      </trkpt>
      <trkpt lat="49.39119" lon="-1.72682">
        <ele>72</ele>
        <time>2022-03-14T16:40:24Z</time>
      </trkpt>
      <trkpt lat="49.39114" lon="-1.72685">
        <ele>72.1</ele>
        <time>2022-03-14T16:40:27Z</time>
      </trkpt>
      <trkpt lat="49.3911" lon="-1.72691">
        <ele>72</ele>
        <time>2022-03-14T16:40:31Z</time>
      </trkpt>
      <trkpt lat="49.39107" lon="-1.72696">
        <ele>72</ele>
        <time>2022-03-14T16:40:34Z</time>
      </trkpt>
      <trkpt lat="49.39103" lon="-1.72701">
        <ele>72</ele>
        <time>2022-03-14T16:40:37Z</time>
      </trkpt>
      <trkpt lat="49.39099" lon="-1.72705">
        <ele>72.2</ele>
        <time>2022-03-14T16:40:40Z</time>
      </trkpt>
      <trkpt lat="49.39096" lon="-1.72712">
        <ele>71.9</ele>
        <time>2022-03-14T16:40:55Z</time>
      </trkpt>
      <trkpt lat="49.39093" lon="-1.7272">
        <ele>71.5</ele>
        <time>2022-03-14T16:40:59Z</time>
      </trkpt>
      <trkpt lat="49.3909" lon="-1.72726">
        <ele>71.1</ele>
        <time>2022-03-14T16:41:03Z</time>
      </trkpt>
      <trkpt lat="49.39088" lon="-1.72734">
        <ele>70.7</ele>
        <time>2022-03-14T16:41:07Z</time>
      </trkpt>
      <trkpt lat="49.39085" lon="-1.72741">
        <ele>70.4</ele>
        <time>2022-03-14T16:41:10Z</time>
      </trkpt>
      <trkpt lat="49.39082" lon="-1.72746">
        <ele>70.2</ele>
        <time>2022-03-14T16:41:13Z</time>
      </trkpt>
      <trkpt lat="49.39078" lon="-1.72751">
        <ele>70.2</ele>
        <time>2022-03-14T16:41:16Z</time>
      </trkpt>
      <trkpt lat="49.39076" lon="-1.72758">
        <ele>70.4</ele>
        <time>2022-03-14T16:41:20Z</time>
      </trkpt>
      <trkpt lat="49.39074" lon="-1.72764">
        <ele>70.5</ele>
        <time>2022-03-14T16:41:23Z</time>
      </trkpt>
      <trkpt lat="49.39071" lon="-1.7277">
        <ele>70.5</ele>
        <time>2022-03-14T16:41:27Z</time>
      </trkpt>
      <trkpt lat="49.39068" lon="-1.72776">
        <ele>70.3</ele>
        <time>2022-03-14T16:41:30Z</time>
      </trkpt>
      <trkpt lat="49.39064" lon="-1.72782">
        <ele>70.2</ele>
        <time>2022-03-14T16:41:33Z</time>
      </trkpt>
      <trkpt lat="49.3906" lon="-1.72788">
        <ele>70.2</ele>
        <time>2022-03-14T16:41:36Z</time>
      </trkpt>
      <trkpt lat="49.39057" lon="-1.72794">
        <ele>70</ele>
        <time>2022-03-14T16:41:40Z</time>
      </trkpt>
      <trkpt lat="49.39055" lon="-1.72802">
        <ele>69.7</ele>
        <time>2022-03-14T16:41:45Z</time>
      </trkpt>
      <trkpt lat="49.39052" lon="-1.72809">
        <ele>69.7</ele>
        <time>2022-03-14T16:41:49Z</time>
      </trkpt>
      <trkpt lat="49.39047" lon="-1.72814">
        <ele>69.7</ele>
        <time>2022-03-14T16:41:52Z</time>
      </trkpt>
      <trkpt lat="49.39043" lon="-1.72819">
        <ele>69.8</ele>
        <time>2022-03-14T16:41:55Z</time>
      </trkpt>
      <trkpt lat="49.39039" lon="-1.72824">
        <ele>69.6</ele>
        <time>2022-03-14T16:41:59Z</time>
      </trkpt>
      <trkpt lat="49.39036" lon="-1.72829">
        <ele>69.4</ele>
        <time>2022-03-14T16:42:02Z</time>
      </trkpt>
      <trkpt lat="49.39032" lon="-1.72835">
        <ele>69.1</ele>
        <time>2022-03-14T16:42:05Z</time>
      </trkpt>
      <trkpt lat="49.39029" lon="-1.72841">
        <ele>69</ele>
        <time>2022-03-14T16:42:09Z</time>
      </trkpt>
      <trkpt lat="49.39027" lon="-1.72848">
        <ele>68.8</ele>
        <time>2022-03-14T16:42:12Z</time>
      </trkpt>
      <trkpt lat="49.39024" lon="-1.72855">
        <ele>68.6</ele>
        <time>2022-03-14T16:42:17Z</time>
      </trkpt>
      <trkpt lat="49.39021" lon="-1.72862">
        <ele>68.5</ele>
        <time>2022-03-14T16:42:21Z</time>
      </trkpt>
      <trkpt lat="49.3902" lon="-1.72869">
        <ele>68.2</ele>
        <time>2022-03-14T16:42:26Z</time>
      </trkpt>
      <trkpt lat="49.39016" lon="-1.72875">
        <ele>67.6</ele>
        <time>2022-03-14T16:42:30Z</time>
      </trkpt>
      <trkpt lat="49.39013" lon="-1.72882">
        <ele>67.1</ele>
        <time>2022-03-14T16:42:35Z</time>
      </trkpt>
      <trkpt lat="49.3901" lon="-1.72888">
        <ele>67.1</ele>
        <time>2022-03-14T16:42:38Z</time>
      </trkpt>
      <trkpt lat="49.39007" lon="-1.72894">
        <ele>67.1</ele>
        <time>2022-03-14T16:42:43Z</time>
      </trkpt>
      <trkpt lat="49.39004" lon="-1.72901">
        <ele>67.1</ele>
        <time>2022-03-14T16:42:46Z</time>
      </trkpt>
      <trkpt lat="49.39002" lon="-1.72907">
        <ele>66.8</ele>
        <time>2022-03-14T16:42:50Z</time>
      </trkpt>
      <trkpt lat="49.38999" lon="-1.72915">
        <ele>66.6</ele>
        <time>2022-03-14T16:42:55Z</time>
      </trkpt>
      <trkpt lat="49.38997" lon="-1.72922">
        <ele>66.6</ele>
        <time>2022-03-14T16:42:59Z</time>
      </trkpt>
      <trkpt lat="49.38994" lon="-1.72928">
        <ele>66.5</ele>
        <time>2022-03-14T16:43:04Z</time>
      </trkpt>
      <trkpt lat="49.38991" lon="-1.72934">
        <ele>66.1</ele>
        <time>2022-03-14T16:43:09Z</time>
      </trkpt>
      <trkpt lat="49.38988" lon="-1.72942">
        <ele>66</ele>
        <time>2022-03-14T16:43:12Z</time>
      </trkpt>
      <trkpt lat="49.38985" lon="-1.72949">
        <ele>66.1</ele>
        <time>2022-03-14T16:43:17Z</time>
      </trkpt>
      <trkpt lat="49.38982" lon="-1.72954">
        <ele>66.4</ele>
        <time>2022-03-14T16:43:22Z</time>
      </trkpt>
      <trkpt lat="49.38979" lon="-1.72962">
        <ele>66.2</ele>
        <time>2022-03-14T16:43:26Z</time>
      </trkpt>
      <trkpt lat="49.38978" lon="-1.7297">
        <ele>66.3</ele>
        <time>2022-03-14T16:43:29Z</time>
      </trkpt>
      <trkpt lat="49.38974" lon="-1.72975">
        <ele>66.4</ele>
        <time>2022-03-14T16:43:33Z</time>
      </trkpt>
      <trkpt lat="49.38971" lon="-1.72981">
        <ele>66.4</ele>
        <time>2022-03-14T16:43:36Z</time>
      </trkpt>
      <trkpt lat="49.38966" lon="-1.72987">
        <ele>66.5</ele>
        <time>2022-03-14T16:43:40Z</time>
      </trkpt>
      <trkpt lat="49.38963" lon="-1.72995">
        <ele>66.5</ele>
        <time>2022-03-14T16:43:43Z</time>
      </trkpt>
      <trkpt lat="49.38959" lon="-1.73">
        <ele>66.3</ele>
        <time>2022-03-14T16:43:47Z</time>
      </trkpt>
      <trkpt lat="49.38956" lon="-1.73006">
        <ele>65.8</ele>
        <time>2022-03-14T16:43:50Z</time>
      </trkpt>
      <trkpt lat="49.38953" lon="-1.73012">
        <ele>65.5</ele>
        <time>2022-03-14T16:43:53Z</time>
      </trkpt>
      <trkpt lat="49.3895" lon="-1.73019">
        <ele>65.4</ele>
        <time>2022-03-14T16:43:56Z</time>
      </trkpt>
      <trkpt lat="49.38948" lon="-1.73026">
        <ele>65.3</ele>
        <time>2022-03-14T16:43:59Z</time>
      </trkpt>
      <trkpt lat="49.38947" lon="-1.73036">
        <ele>64.6</ele>
        <time>2022-03-14T16:44:03Z</time>
      </trkpt>
      <trkpt lat="49.38947" lon="-1.73044">
        <ele>63.7</ele>
        <time>2022-03-14T16:44:06Z</time>
      </trkpt>
      <trkpt lat="49.3895" lon="-1.7305">
        <ele>62.3</ele>
        <time>2022-03-14T16:44:39Z</time>
      </trkpt>
      <trkpt lat="49.38952" lon="-1.73057">
        <ele>62.1</ele>
        <time>2022-03-14T16:44:49Z</time>
      </trkpt>
      <trkpt lat="49.38955" lon="-1.73065">
        <ele>61.9</ele>
        <time>2022-03-14T16:44:53Z</time>
      </trkpt>
      <trkpt lat="49.38956" lon="-1.73072">
        <ele>62</ele>
        <time>2022-03-14T16:44:56Z</time>
      </trkpt>
      <trkpt lat="49.38962" lon="-1.73077">
        <ele>62.5</ele>
        <time>2022-03-14T16:45:00Z</time>
      </trkpt>
      <trkpt lat="49.38966" lon="-1.73085">
        <ele>63.2</ele>
        <time>2022-03-14T16:45:03Z</time>
      </trkpt>
      <trkpt lat="49.38969" lon="-1.73092">
        <ele>63.6</ele>
        <time>2022-03-14T16:45:06Z</time>
      </trkpt>
      <trkpt lat="49.38972" lon="-1.73101">
        <ele>63.8</ele>
        <time>2022-03-14T16:45:10Z</time>
      </trkpt>
      <trkpt lat="49.38973" lon="-1.73107">
        <ele>63.9</ele>
        <time>2022-03-14T16:45:13Z</time>
      </trkpt>
      <trkpt lat="49.38977" lon="-1.73115">
        <ele>64.1</ele>
        <time>2022-03-14T16:45:17Z</time>
      </trkpt>
      <trkpt lat="49.38977" lon="-1.73122">
        <ele>64.2</ele>
        <time>2022-03-14T16:45:20Z</time>
      </trkpt>
      <trkpt lat="49.38979" lon="-1.73131">
        <ele>64.5</ele>
        <time>2022-03-14T16:45:24Z</time>
      </trkpt>
      <trkpt lat="49.3898" lon="-1.73141">
        <ele>64.8</ele>
        <time>2022-03-14T16:45:28Z</time>
      </trkpt>
      <trkpt lat="49.38982" lon="-1.73148">
        <ele>64.9</ele>
        <time>2022-03-14T16:45:30Z</time>
      </trkpt>
      <trkpt lat="49.38982" lon="-1.73155">
        <ele>64.9</ele>
        <time>2022-03-14T16:45:34Z</time>
      </trkpt>
      <trkpt lat="49.38984" lon="-1.73165">
        <ele>65</ele>
        <time>2022-03-14T16:45:38Z</time>
      </trkpt>
      <trkpt lat="49.38984" lon="-1.73172">
        <ele>65.1</ele>
        <time>2022-03-14T16:45:41Z</time>
      </trkpt>
      <trkpt lat="49.38985" lon="-1.7318">
        <ele>65</ele>
        <time>2022-03-14T16:45:45Z</time>
      </trkpt>
      <trkpt lat="49.38986" lon="-1.73188">
        <ele>64.8</ele>
        <time>2022-03-14T16:45:48Z</time>
      </trkpt>
      <trkpt lat="49.38988" lon="-1.73194">
        <ele>64.2</ele>
        <time>2022-03-14T16:45:58Z</time>
      </trkpt>
      <trkpt lat="49.38988" lon="-1.73202">
        <ele>63.9</ele>
        <time>2022-03-14T16:46:01Z</time>
      </trkpt>
      <trkpt lat="49.38988" lon="-1.7321">
        <ele>63.7</ele>
        <time>2022-03-14T16:46:04Z</time>
      </trkpt>
      <trkpt lat="49.38988" lon="-1.73219">
        <ele>63.5</ele>
        <time>2022-03-14T16:46:07Z</time>
      </trkpt>
      <trkpt lat="49.38987" lon="-1.73227">
        <ele>63.4</ele>
        <time>2022-03-14T16:46:10Z</time>
      </trkpt>
      <trkpt lat="49.38988" lon="-1.73235">
        <ele>63.3</ele>
        <time>2022-03-14T16:46:14Z</time>
      </trkpt>
      <trkpt lat="49.38988" lon="-1.73242">
        <ele>62.8</ele>
        <time>2022-03-14T16:46:18Z</time>
      </trkpt>
      <trkpt lat="49.38987" lon="-1.73257">
        <ele>62.3</ele>
        <time>2022-03-14T16:46:25Z</time>
      </trkpt>
      <trkpt lat="49.38987" lon="-1.73266">
        <ele>62.1</ele>
        <time>2022-03-14T16:46:29Z</time>
      </trkpt>
      <trkpt lat="49.38986" lon="-1.73273">
        <ele>62</ele>
        <time>2022-03-14T16:46:33Z</time>
      </trkpt>
      <trkpt lat="49.38987" lon="-1.73282">
        <ele>62.2</ele>
        <time>2022-03-14T16:46:36Z</time>
      </trkpt>
      <trkpt lat="49.38988" lon="-1.73289">
        <ele>62.4</ele>
        <time>2022-03-14T16:46:39Z</time>
      </trkpt>
      <trkpt lat="49.38987" lon="-1.73298">
        <ele>62.7</ele>
        <time>2022-03-14T16:46:43Z</time>
      </trkpt>
      <trkpt lat="49.38987" lon="-1.73306">
        <ele>62.8</ele>
        <time>2022-03-14T16:46:47Z</time>
      </trkpt>
      <trkpt lat="49.38987" lon="-1.73313">
        <ele>62.8</ele>
        <time>2022-03-14T16:46:50Z</time>
      </trkpt>
      <trkpt lat="49.38987" lon="-1.7332">
        <ele>62.7</ele>
        <time>2022-03-14T16:46:53Z</time>
      </trkpt>
      <trkpt lat="49.38989" lon="-1.73327">
        <ele>62.5</ele>
        <time>2022-03-14T16:46:56Z</time>
      </trkpt>
      <trkpt lat="49.38989" lon="-1.73334">
        <ele>62.3</ele>
        <time>2022-03-14T16:47:01Z</time>
      </trkpt>
      <trkpt lat="49.38988" lon="-1.73342">
        <ele>62.3</ele>
        <time>2022-03-14T16:47:04Z</time>
      </trkpt>
      <trkpt lat="49.38987" lon="-1.73349">
        <ele>62.2</ele>
        <time>2022-03-14T16:47:07Z</time>
      </trkpt>
      <trkpt lat="49.38988" lon="-1.73357">
        <ele>62.3</ele>
        <time>2022-03-14T16:47:12Z</time>
      </trkpt>
      <trkpt lat="49.38988" lon="-1.73365">
        <ele>62.3</ele>
        <time>2022-03-14T16:47:15Z</time>
      </trkpt>
      <trkpt lat="49.38989" lon="-1.73372">
        <ele>62.4</ele>
        <time>2022-03-14T16:47:17Z</time>
      </trkpt>
      <trkpt lat="49.38989" lon="-1.7338">
        <ele>62.4</ele>
        <time>2022-03-14T16:47:20Z</time>
      </trkpt>
      <trkpt lat="49.38988" lon="-1.73388">
        <ele>62.6</ele>
        <time>2022-03-14T16:47:24Z</time>
      </trkpt>
      <trkpt lat="49.38988" lon="-1.73395">
        <ele>62.8</ele>
        <time>2022-03-14T16:47:27Z</time>
      </trkpt>
      <trkpt lat="49.38989" lon="-1.73402">
        <ele>62.9</ele>
        <time>2022-03-14T16:47:30Z</time>
      </trkpt>
      <trkpt lat="49.3899" lon="-1.73411">
        <ele>63.1</ele>
        <time>2022-03-14T16:47:34Z</time>
      </trkpt>
      <trkpt lat="49.3899" lon="-1.73418">
        <ele>63.2</ele>
        <time>2022-03-14T16:47:37Z</time>
      </trkpt>
      <trkpt lat="49.38989" lon="-1.73425">
        <ele>63.2</ele>
        <time>2022-03-14T16:47:41Z</time>
      </trkpt>
      <trkpt lat="49.38988" lon="-1.73435">
        <ele>63.1</ele>
        <time>2022-03-14T16:47:44Z</time>
      </trkpt>
      <trkpt lat="49.38989" lon="-1.73442">
        <ele>63.1</ele>
        <time>2022-03-14T16:47:47Z</time>
      </trkpt>
      <trkpt lat="49.38991" lon="-1.7345">
        <ele>63.2</ele>
        <time>2022-03-14T16:47:50Z</time>
      </trkpt>
      <trkpt lat="49.38994" lon="-1.73457">
        <ele>63.4</ele>
        <time>2022-03-14T16:47:54Z</time>
      </trkpt>
      <trkpt lat="49.38998" lon="-1.7346">
        <ele>63.5</ele>
        <time>2022-03-14T16:47:56Z</time>
      </trkpt>
      <trkpt lat="49.39004" lon="-1.73463">
        <ele>63.8</ele>
        <time>2022-03-14T16:47:59Z</time>
      </trkpt>
      <trkpt lat="49.39008" lon="-1.73462">
        <ele>64.1</ele>
        <time>2022-03-14T16:48:03Z</time>
      </trkpt>
    </trkseg>
  </trk>
</gpx>